<?xml version="1.0" encoding="UTF-8" standalone="no" ?>
<gpx xmlns="http://www.topografix.com/GPX/1/1" xmlns:xsi="http://www.w3.org/2001/XMLSchema-instance" xsi:schemaLocation="http://www.topografix.com/GPX/1/1 http://www.topografix.com/GPX/1/1/gpx.xsd" version="1.1" creator="VisuGPX - https://www.visugpx.com">
  <metadata>
    <name>OMS CHENOVE Marche du vendredi 15 juin 2012</name>
    <desc><![CDATA[De Chenove à Chenove via Gouville]]></desc>
  </metadata>
  <trk>
    <name><![CDATA[OMS CHENOVE Marche du vendredi 15 juin 2012_1]]></name>
    <trkseg>
      <trkpt lat="47.2925" lon="5.00572">
        <ele>316.921</ele>
        <time>2012-06-15T08:05:38Z</time>
      </trkpt>
      <trkpt lat="47.2925" lon="5.0057">
        <ele>317.264</ele>
        <time>2012-06-15T08:05:49Z</time>
      </trkpt>
      <trkpt lat="47.2925" lon="5.0057">
        <ele>316.075</ele>
        <time>2012-06-15T08:06:00Z</time>
      </trkpt>
      <trkpt lat="47.2925" lon="5.0057">
        <ele>316.075</ele>
        <time>2012-06-15T08:06:11Z</time>
      </trkpt>
      <trkpt lat="47.29248" lon="5.00577">
        <ele>316.368</ele>
        <time>2012-06-15T08:06:22Z</time>
      </trkpt>
      <trkpt lat="47.29252" lon="5.00577">
        <ele>321.632</ele>
        <time>2012-06-15T08:06:33Z</time>
      </trkpt>
      <trkpt lat="47.29248" lon="5.00573">
        <ele>322.625</ele>
        <time>2012-06-15T08:06:44Z</time>
      </trkpt>
      <trkpt lat="47.29242" lon="5.00567">
        <ele>315.424</ele>
        <time>2012-06-15T08:06:55Z</time>
      </trkpt>
      <trkpt lat="47.29228" lon="5.00563">
        <ele>307.829</ele>
        <time>2012-06-15T08:07:06Z</time>
      </trkpt>
      <trkpt lat="47.29225" lon="5.00552">
        <ele>312.496</ele>
        <time>2012-06-15T08:07:17Z</time>
      </trkpt>
      <trkpt lat="47.29217" lon="5.00538">
        <ele>308.785</ele>
        <time>2012-06-15T08:07:28Z</time>
      </trkpt>
      <trkpt lat="47.2921" lon="5.0053">
        <ele>308.228</ele>
        <time>2012-06-15T08:07:39Z</time>
      </trkpt>
      <trkpt lat="47.29215" lon="5.00515">
        <ele>312.076</ele>
        <time>2012-06-15T08:07:50Z</time>
      </trkpt>
      <trkpt lat="47.2923" lon="5.00493">
        <ele>325.074</ele>
        <time>2012-06-15T08:08:01Z</time>
      </trkpt>
      <trkpt lat="47.2923" lon="5.00467">
        <ele>339.938</ele>
        <time>2012-06-15T08:08:12Z</time>
      </trkpt>
      <trkpt lat="47.29213" lon="5.0046">
        <ele>328.38</ele>
        <time>2012-06-15T08:08:23Z</time>
      </trkpt>
      <trkpt lat="47.29215" lon="5.00445">
        <ele>329.3</ele>
        <time>2012-06-15T08:08:34Z</time>
      </trkpt>
      <trkpt lat="47.29218" lon="5.00422">
        <ele>330.931</ele>
        <time>2012-06-15T08:08:45Z</time>
      </trkpt>
      <trkpt lat="47.29225" lon="5.00395">
        <ele>334.141</ele>
        <time>2012-06-15T08:08:56Z</time>
      </trkpt>
      <trkpt lat="47.29225" lon="5.00375">
        <ele>340.674</ele>
        <time>2012-06-15T08:09:07Z</time>
      </trkpt>
      <trkpt lat="47.2921" lon="5.00358">
        <ele>344.491</ele>
        <time>2012-06-15T08:09:18Z</time>
      </trkpt>
      <trkpt lat="47.29198" lon="5.00358">
        <ele>348.173</ele>
        <time>2012-06-15T08:09:29Z</time>
      </trkpt>
      <trkpt lat="47.29187" lon="5.00357">
        <ele>352.189</ele>
        <time>2012-06-15T08:09:40Z</time>
      </trkpt>
      <trkpt lat="47.29175" lon="5.00353">
        <ele>357.267</ele>
        <time>2012-06-15T08:09:51Z</time>
      </trkpt>
      <trkpt lat="47.29162" lon="5.00342">
        <ele>359.123</ele>
        <time>2012-06-15T08:10:02Z</time>
      </trkpt>
      <trkpt lat="47.29157" lon="5.00318">
        <ele>359.677</ele>
        <time>2012-06-15T08:10:13Z</time>
      </trkpt>
      <trkpt lat="47.29157" lon="5.0029">
        <ele>358.978</ele>
        <time>2012-06-15T08:10:24Z</time>
      </trkpt>
      <trkpt lat="47.29155" lon="5.00268">
        <ele>357.801</ele>
        <time>2012-06-15T08:10:35Z</time>
      </trkpt>
      <trkpt lat="47.29158" lon="5.00262">
        <ele>355.65</ele>
        <time>2012-06-15T08:10:46Z</time>
      </trkpt>
      <trkpt lat="47.29163" lon="5.00243">
        <ele>353.87</ele>
        <time>2012-06-15T08:10:57Z</time>
      </trkpt>
      <trkpt lat="47.29163" lon="5.00227">
        <ele>352.167</ele>
        <time>2012-06-15T08:11:08Z</time>
      </trkpt>
      <trkpt lat="47.29167" lon="5.00218">
        <ele>346.634</ele>
        <time>2012-06-15T08:11:19Z</time>
      </trkpt>
      <trkpt lat="47.29158" lon="5.00213">
        <ele>345.964</ele>
        <time>2012-06-15T08:11:30Z</time>
      </trkpt>
      <trkpt lat="47.29155" lon="5.00212">
        <ele>347.116</ele>
        <time>2012-06-15T08:11:41Z</time>
      </trkpt>
      <trkpt lat="47.2914" lon="5.00197">
        <ele>343.173</ele>
        <time>2012-06-15T08:11:52Z</time>
      </trkpt>
      <trkpt lat="47.29127" lon="5.00185">
        <ele>345.001</ele>
        <time>2012-06-15T08:12:03Z</time>
      </trkpt>
      <trkpt lat="47.29122" lon="5.0018">
        <ele>339.823</ele>
        <time>2012-06-15T08:12:14Z</time>
      </trkpt>
      <trkpt lat="47.29102" lon="5.00173">
        <ele>334.909</ele>
        <time>2012-06-15T08:12:25Z</time>
      </trkpt>
      <trkpt lat="47.29088" lon="5.0017">
        <ele>334.753</ele>
        <time>2012-06-15T08:12:36Z</time>
      </trkpt>
      <trkpt lat="47.29075" lon="5.00165">
        <ele>335.106</ele>
        <time>2012-06-15T08:12:47Z</time>
      </trkpt>
      <trkpt lat="47.29073" lon="5.00163">
        <ele>335.078</ele>
        <time>2012-06-15T08:12:58Z</time>
      </trkpt>
      <trkpt lat="47.2907" lon="5.00153">
        <ele>326.519</ele>
        <time>2012-06-15T08:13:09Z</time>
      </trkpt>
      <trkpt lat="47.29072" lon="5.00138">
        <ele>319.331</ele>
        <time>2012-06-15T08:13:20Z</time>
      </trkpt>
      <trkpt lat="47.29072" lon="5.00122">
        <ele>309.766</ele>
        <time>2012-06-15T08:13:31Z</time>
      </trkpt>
      <trkpt lat="47.29073" lon="5.00102">
        <ele>307.959</ele>
        <time>2012-06-15T08:13:42Z</time>
      </trkpt>
      <trkpt lat="47.29075" lon="5.00083">
        <ele>304.916</ele>
        <time>2012-06-15T08:13:53Z</time>
      </trkpt>
      <trkpt lat="47.29082" lon="5.00065">
        <ele>303.755</ele>
        <time>2012-06-15T08:14:04Z</time>
      </trkpt>
      <trkpt lat="47.29082" lon="5.00055">
        <ele>300.719</ele>
        <time>2012-06-15T08:14:15Z</time>
      </trkpt>
      <trkpt lat="47.29085" lon="5.00025">
        <ele>300.837</ele>
        <time>2012-06-15T08:14:26Z</time>
      </trkpt>
      <trkpt lat="47.29087" lon="5.00005">
        <ele>301.174</ele>
        <time>2012-06-15T08:14:37Z</time>
      </trkpt>
      <trkpt lat="47.29078" lon="4.99987">
        <ele>304.287</ele>
        <time>2012-06-15T08:14:48Z</time>
      </trkpt>
      <trkpt lat="47.29065" lon="4.99975">
        <ele>303.166</ele>
        <time>2012-06-15T08:14:59Z</time>
      </trkpt>
      <trkpt lat="47.29053" lon="4.99963">
        <ele>306.1</ele>
        <time>2012-06-15T08:15:10Z</time>
      </trkpt>
      <trkpt lat="47.29043" lon="4.99953">
        <ele>305.92</ele>
        <time>2012-06-15T08:15:21Z</time>
      </trkpt>
      <trkpt lat="47.29028" lon="4.99942">
        <ele>301.491</ele>
        <time>2012-06-15T08:15:32Z</time>
      </trkpt>
      <trkpt lat="47.2902" lon="4.99933">
        <ele>301.234</ele>
        <time>2012-06-15T08:15:43Z</time>
      </trkpt>
      <trkpt lat="47.29007" lon="4.99923">
        <ele>301.838</ele>
        <time>2012-06-15T08:15:54Z</time>
      </trkpt>
      <trkpt lat="47.28993" lon="4.99915">
        <ele>302.056</ele>
        <time>2012-06-15T08:16:05Z</time>
      </trkpt>
      <trkpt lat="47.2898" lon="4.99907">
        <ele>303.257</ele>
        <time>2012-06-15T08:16:16Z</time>
      </trkpt>
      <trkpt lat="47.28967" lon="4.999">
        <ele>303.856</ele>
        <time>2012-06-15T08:16:27Z</time>
      </trkpt>
      <trkpt lat="47.28952" lon="4.99895">
        <ele>303.853</ele>
        <time>2012-06-15T08:16:38Z</time>
      </trkpt>
      <trkpt lat="47.28937" lon="4.9989">
        <ele>304.388</ele>
        <time>2012-06-15T08:16:49Z</time>
      </trkpt>
      <trkpt lat="47.28923" lon="4.99885">
        <ele>305.783</ele>
        <time>2012-06-15T08:17:00Z</time>
      </trkpt>
      <trkpt lat="47.28913" lon="4.99882">
        <ele>307.582</ele>
        <time>2012-06-15T08:17:11Z</time>
      </trkpt>
      <trkpt lat="47.28902" lon="4.99878">
        <ele>308.459</ele>
        <time>2012-06-15T08:17:22Z</time>
      </trkpt>
      <trkpt lat="47.28888" lon="4.99873">
        <ele>310.085</ele>
        <time>2012-06-15T08:17:33Z</time>
      </trkpt>
      <trkpt lat="47.28875" lon="4.99868">
        <ele>309.802</ele>
        <time>2012-06-15T08:17:44Z</time>
      </trkpt>
      <trkpt lat="47.28863" lon="4.99855">
        <ele>308.916</ele>
        <time>2012-06-15T08:17:55Z</time>
      </trkpt>
      <trkpt lat="47.28863" lon="4.99833">
        <ele>307.896</ele>
        <time>2012-06-15T08:18:06Z</time>
      </trkpt>
      <trkpt lat="47.28862" lon="4.99818">
        <ele>305.789</ele>
        <time>2012-06-15T08:18:17Z</time>
      </trkpt>
      <trkpt lat="47.28862" lon="4.99797">
        <ele>305.607</ele>
        <time>2012-06-15T08:18:28Z</time>
      </trkpt>
      <trkpt lat="47.28862" lon="4.99778">
        <ele>306.668</ele>
        <time>2012-06-15T08:18:39Z</time>
      </trkpt>
      <trkpt lat="47.28863" lon="4.9976">
        <ele>307.794</ele>
        <time>2012-06-15T08:18:50Z</time>
      </trkpt>
      <trkpt lat="47.28865" lon="4.9974">
        <ele>309.335</ele>
        <time>2012-06-15T08:19:01Z</time>
      </trkpt>
      <trkpt lat="47.28867" lon="4.99728">
        <ele>310.348</ele>
        <time>2012-06-15T08:19:12Z</time>
      </trkpt>
      <trkpt lat="47.28867" lon="4.9971">
        <ele>311.492</ele>
        <time>2012-06-15T08:19:23Z</time>
      </trkpt>
      <trkpt lat="47.28868" lon="4.99693">
        <ele>313.86</ele>
        <time>2012-06-15T08:19:34Z</time>
      </trkpt>
      <trkpt lat="47.28868" lon="4.99685">
        <ele>313.386</ele>
        <time>2012-06-15T08:19:45Z</time>
      </trkpt>
      <trkpt lat="47.2887" lon="4.99665">
        <ele>315.015</ele>
        <time>2012-06-15T08:19:56Z</time>
      </trkpt>
      <trkpt lat="47.28872" lon="4.99652">
        <ele>316.828</ele>
        <time>2012-06-15T08:20:07Z</time>
      </trkpt>
      <trkpt lat="47.28868" lon="4.99637">
        <ele>318.584</ele>
        <time>2012-06-15T08:20:18Z</time>
      </trkpt>
      <trkpt lat="47.28865" lon="4.99633">
        <ele>319.485</ele>
        <time>2012-06-15T08:20:29Z</time>
      </trkpt>
      <trkpt lat="47.28862" lon="4.99627">
        <ele>320.451</ele>
        <time>2012-06-15T08:20:40Z</time>
      </trkpt>
      <trkpt lat="47.28855" lon="4.99627">
        <ele>322.77</ele>
        <time>2012-06-15T08:20:51Z</time>
      </trkpt>
      <trkpt lat="47.28852" lon="4.99622">
        <ele>324.706</ele>
        <time>2012-06-15T08:21:02Z</time>
      </trkpt>
      <trkpt lat="47.28847" lon="4.99617">
        <ele>325.934</ele>
        <time>2012-06-15T08:21:13Z</time>
      </trkpt>
      <trkpt lat="47.28843" lon="4.99607">
        <ele>325.259</ele>
        <time>2012-06-15T08:21:24Z</time>
      </trkpt>
      <trkpt lat="47.28842" lon="4.99602">
        <ele>325.861</ele>
        <time>2012-06-15T08:21:35Z</time>
      </trkpt>
      <trkpt lat="47.28842" lon="4.99592">
        <ele>328.485</ele>
        <time>2012-06-15T08:21:46Z</time>
      </trkpt>
      <trkpt lat="47.28838" lon="4.99583">
        <ele>330.618</ele>
        <time>2012-06-15T08:21:57Z</time>
      </trkpt>
      <trkpt lat="47.28833" lon="4.9958">
        <ele>332.479</ele>
        <time>2012-06-15T08:22:08Z</time>
      </trkpt>
      <trkpt lat="47.28833" lon="4.99562">
        <ele>335.793</ele>
        <time>2012-06-15T08:22:19Z</time>
      </trkpt>
      <trkpt lat="47.28835" lon="4.99553">
        <ele>334.803</ele>
        <time>2012-06-15T08:22:30Z</time>
      </trkpt>
      <trkpt lat="47.2884" lon="4.99538">
        <ele>330.924</ele>
        <time>2012-06-15T08:22:41Z</time>
      </trkpt>
      <trkpt lat="47.28842" lon="4.99525">
        <ele>329.425</ele>
        <time>2012-06-15T08:22:52Z</time>
      </trkpt>
      <trkpt lat="47.2885" lon="4.9952">
        <ele>328.489</ele>
        <time>2012-06-15T08:23:03Z</time>
      </trkpt>
      <trkpt lat="47.28863" lon="4.99515">
        <ele>327.89</ele>
        <time>2012-06-15T08:23:14Z</time>
      </trkpt>
      <trkpt lat="47.28873" lon="4.99515">
        <ele>327.584</ele>
        <time>2012-06-15T08:23:25Z</time>
      </trkpt>
      <trkpt lat="47.28885" lon="4.99512">
        <ele>329.648</ele>
        <time>2012-06-15T08:23:36Z</time>
      </trkpt>
      <trkpt lat="47.28897" lon="4.9951">
        <ele>330.11</ele>
        <time>2012-06-15T08:23:47Z</time>
      </trkpt>
      <trkpt lat="47.28908" lon="4.99512">
        <ele>331.671</ele>
        <time>2012-06-15T08:23:58Z</time>
      </trkpt>
      <trkpt lat="47.28918" lon="4.99515">
        <ele>331.71</ele>
        <time>2012-06-15T08:24:09Z</time>
      </trkpt>
      <trkpt lat="47.28925" lon="4.99515">
        <ele>332.338</ele>
        <time>2012-06-15T08:24:20Z</time>
      </trkpt>
      <trkpt lat="47.28937" lon="4.99513">
        <ele>332.544</ele>
        <time>2012-06-15T08:24:31Z</time>
      </trkpt>
      <trkpt lat="47.28945" lon="4.99512">
        <ele>332.634</ele>
        <time>2012-06-15T08:24:42Z</time>
      </trkpt>
      <trkpt lat="47.2896" lon="4.99508">
        <ele>333.713</ele>
        <time>2012-06-15T08:24:53Z</time>
      </trkpt>
      <trkpt lat="47.28965" lon="4.99502">
        <ele>334.188</ele>
        <time>2012-06-15T08:25:04Z</time>
      </trkpt>
      <trkpt lat="47.28965" lon="4.99493">
        <ele>337.418</ele>
        <time>2012-06-15T08:25:15Z</time>
      </trkpt>
      <trkpt lat="47.28968" lon="4.9948">
        <ele>339.386</ele>
        <time>2012-06-15T08:25:26Z</time>
      </trkpt>
      <trkpt lat="47.28975" lon="4.99468">
        <ele>339.801</ele>
        <time>2012-06-15T08:25:37Z</time>
      </trkpt>
      <trkpt lat="47.2898" lon="4.99463">
        <ele>340.176</ele>
        <time>2012-06-15T08:25:48Z</time>
      </trkpt>
      <trkpt lat="47.2898" lon="4.99463">
        <ele>340.139</ele>
        <time>2012-06-15T08:25:59Z</time>
      </trkpt>
      <trkpt lat="47.28987" lon="4.99457">
        <ele>339.946</ele>
        <time>2012-06-15T08:26:10Z</time>
      </trkpt>
      <trkpt lat="47.29" lon="4.99448">
        <ele>339.893</ele>
        <time>2012-06-15T08:26:21Z</time>
      </trkpt>
      <trkpt lat="47.2901" lon="4.99435">
        <ele>341.373</ele>
        <time>2012-06-15T08:26:32Z</time>
      </trkpt>
      <trkpt lat="47.29022" lon="4.9942">
        <ele>342.44</ele>
        <time>2012-06-15T08:26:43Z</time>
      </trkpt>
      <trkpt lat="47.29037" lon="4.99413">
        <ele>341.687</ele>
        <time>2012-06-15T08:26:54Z</time>
      </trkpt>
      <trkpt lat="47.29043" lon="4.99405">
        <ele>342.325</ele>
        <time>2012-06-15T08:27:05Z</time>
      </trkpt>
      <trkpt lat="47.29053" lon="4.99395">
        <ele>343.51</ele>
        <time>2012-06-15T08:27:16Z</time>
      </trkpt>
      <trkpt lat="47.29053" lon="4.9938">
        <ele>343.677</ele>
        <time>2012-06-15T08:27:27Z</time>
      </trkpt>
      <trkpt lat="47.29045" lon="4.99378">
        <ele>345.953</ele>
        <time>2012-06-15T08:27:38Z</time>
      </trkpt>
      <trkpt lat="47.29033" lon="4.99367">
        <ele>349.093</ele>
        <time>2012-06-15T08:27:49Z</time>
      </trkpt>
      <trkpt lat="47.29023" lon="4.99355">
        <ele>352.9</ele>
        <time>2012-06-15T08:28:00Z</time>
      </trkpt>
      <trkpt lat="47.29013" lon="4.99348">
        <ele>355.945</ele>
        <time>2012-06-15T08:28:11Z</time>
      </trkpt>
      <trkpt lat="47.29002" lon="4.9934">
        <ele>357.719</ele>
        <time>2012-06-15T08:28:22Z</time>
      </trkpt>
      <trkpt lat="47.28987" lon="4.99338">
        <ele>358.36</ele>
        <time>2012-06-15T08:28:33Z</time>
      </trkpt>
      <trkpt lat="47.28975" lon="4.99337">
        <ele>359.549</ele>
        <time>2012-06-15T08:28:44Z</time>
      </trkpt>
      <trkpt lat="47.28962" lon="4.99332">
        <ele>360.422</ele>
        <time>2012-06-15T08:28:55Z</time>
      </trkpt>
      <trkpt lat="47.28948" lon="4.99333">
        <ele>363.194</ele>
        <time>2012-06-15T08:29:06Z</time>
      </trkpt>
      <trkpt lat="47.28943" lon="4.99333">
        <ele>365.867</ele>
        <time>2012-06-15T08:29:17Z</time>
      </trkpt>
      <trkpt lat="47.28933" lon="4.99332">
        <ele>366.106</ele>
        <time>2012-06-15T08:29:28Z</time>
      </trkpt>
      <trkpt lat="47.28918" lon="4.99325">
        <ele>363.648</ele>
        <time>2012-06-15T08:29:39Z</time>
      </trkpt>
      <trkpt lat="47.28908" lon="4.99322">
        <ele>363.97</ele>
        <time>2012-06-15T08:29:50Z</time>
      </trkpt>
      <trkpt lat="47.2889" lon="4.99315">
        <ele>366.716</ele>
        <time>2012-06-15T08:30:01Z</time>
      </trkpt>
      <trkpt lat="47.28883" lon="4.99308">
        <ele>367.214</ele>
        <time>2012-06-15T08:30:12Z</time>
      </trkpt>
      <trkpt lat="47.28863" lon="4.99298">
        <ele>368.116</ele>
        <time>2012-06-15T08:30:23Z</time>
      </trkpt>
      <trkpt lat="47.2885" lon="4.99293">
        <ele>368.938</ele>
        <time>2012-06-15T08:30:34Z</time>
      </trkpt>
      <trkpt lat="47.28835" lon="4.99287">
        <ele>368.539</ele>
        <time>2012-06-15T08:30:45Z</time>
      </trkpt>
      <trkpt lat="47.28818" lon="4.99277">
        <ele>368.044</ele>
        <time>2012-06-15T08:30:56Z</time>
      </trkpt>
      <trkpt lat="47.28805" lon="4.99267">
        <ele>368.7</ele>
        <time>2012-06-15T08:31:07Z</time>
      </trkpt>
      <trkpt lat="47.28792" lon="4.9926">
        <ele>369.114</ele>
        <time>2012-06-15T08:31:18Z</time>
      </trkpt>
      <trkpt lat="47.28775" lon="4.9925">
        <ele>369.825</ele>
        <time>2012-06-15T08:31:29Z</time>
      </trkpt>
      <trkpt lat="47.2876" lon="4.99247">
        <ele>370.839</ele>
        <time>2012-06-15T08:31:40Z</time>
      </trkpt>
      <trkpt lat="47.28743" lon="4.99243">
        <ele>373.166</ele>
        <time>2012-06-15T08:31:51Z</time>
      </trkpt>
      <trkpt lat="47.28733" lon="4.99237">
        <ele>375.574</ele>
        <time>2012-06-15T08:32:02Z</time>
      </trkpt>
      <trkpt lat="47.28727" lon="4.9923">
        <ele>373.447</ele>
        <time>2012-06-15T08:32:13Z</time>
      </trkpt>
      <trkpt lat="47.28713" lon="4.99233">
        <ele>370.926</ele>
        <time>2012-06-15T08:32:24Z</time>
      </trkpt>
      <trkpt lat="47.287" lon="4.99237">
        <ele>372.448</ele>
        <time>2012-06-15T08:32:35Z</time>
      </trkpt>
      <trkpt lat="47.28692" lon="4.99232">
        <ele>375.061</ele>
        <time>2012-06-15T08:32:46Z</time>
      </trkpt>
      <trkpt lat="47.2869" lon="4.99222">
        <ele>376.398</ele>
        <time>2012-06-15T08:32:57Z</time>
      </trkpt>
      <trkpt lat="47.28682" lon="4.99218">
        <ele>376.985</ele>
        <time>2012-06-15T08:33:08Z</time>
      </trkpt>
      <trkpt lat="47.2867" lon="4.9921">
        <ele>379.398</ele>
        <time>2012-06-15T08:33:19Z</time>
      </trkpt>
      <trkpt lat="47.28658" lon="4.99202">
        <ele>381.73</ele>
        <time>2012-06-15T08:33:30Z</time>
      </trkpt>
      <trkpt lat="47.28645" lon="4.99197">
        <ele>380.199</ele>
        <time>2012-06-15T08:33:41Z</time>
      </trkpt>
      <trkpt lat="47.28633" lon="4.99187">
        <ele>378.936</ele>
        <time>2012-06-15T08:33:52Z</time>
      </trkpt>
      <trkpt lat="47.28627" lon="4.99173">
        <ele>382.798</ele>
        <time>2012-06-15T08:34:03Z</time>
      </trkpt>
      <trkpt lat="47.28618" lon="4.99163">
        <ele>383.263</ele>
        <time>2012-06-15T08:34:14Z</time>
      </trkpt>
      <trkpt lat="47.2861" lon="4.99147">
        <ele>386.446</ele>
        <time>2012-06-15T08:34:25Z</time>
      </trkpt>
      <trkpt lat="47.28595" lon="4.99142">
        <ele>391.173</ele>
        <time>2012-06-15T08:34:36Z</time>
      </trkpt>
      <trkpt lat="47.28587" lon="4.99133">
        <ele>390.867</ele>
        <time>2012-06-15T08:34:47Z</time>
      </trkpt>
      <trkpt lat="47.28582" lon="4.99123">
        <ele>389.731</ele>
        <time>2012-06-15T08:34:58Z</time>
      </trkpt>
      <trkpt lat="47.28572" lon="4.99112">
        <ele>387.069</ele>
        <time>2012-06-15T08:35:09Z</time>
      </trkpt>
      <trkpt lat="47.28562" lon="4.99102">
        <ele>389.141</ele>
        <time>2012-06-15T08:35:20Z</time>
      </trkpt>
      <trkpt lat="47.28552" lon="4.99085">
        <ele>390.94</ele>
        <time>2012-06-15T08:35:31Z</time>
      </trkpt>
      <trkpt lat="47.2854" lon="4.99073">
        <ele>391.109</ele>
        <time>2012-06-15T08:35:42Z</time>
      </trkpt>
      <trkpt lat="47.28525" lon="4.99053">
        <ele>388.109</ele>
        <time>2012-06-15T08:35:53Z</time>
      </trkpt>
      <trkpt lat="47.28513" lon="4.99042">
        <ele>391.632</ele>
        <time>2012-06-15T08:36:04Z</time>
      </trkpt>
      <trkpt lat="47.28502" lon="4.99032">
        <ele>392.249</ele>
        <time>2012-06-15T08:36:15Z</time>
      </trkpt>
      <trkpt lat="47.28488" lon="4.99025">
        <ele>393.156</ele>
        <time>2012-06-15T08:36:26Z</time>
      </trkpt>
      <trkpt lat="47.28477" lon="4.99012">
        <ele>391.852</ele>
        <time>2012-06-15T08:36:37Z</time>
      </trkpt>
      <trkpt lat="47.2847" lon="4.99003">
        <ele>391.052</ele>
        <time>2012-06-15T08:36:48Z</time>
      </trkpt>
      <trkpt lat="47.2846" lon="4.9899">
        <ele>390.249</ele>
        <time>2012-06-15T08:36:59Z</time>
      </trkpt>
      <trkpt lat="47.28447" lon="4.9898">
        <ele>389.927</ele>
        <time>2012-06-15T08:37:10Z</time>
      </trkpt>
      <trkpt lat="47.28438" lon="4.9897">
        <ele>392.275</ele>
        <time>2012-06-15T08:37:21Z</time>
      </trkpt>
      <trkpt lat="47.28427" lon="4.98965">
        <ele>390.012</ele>
        <time>2012-06-15T08:37:32Z</time>
      </trkpt>
      <trkpt lat="47.2841" lon="4.98952">
        <ele>389.617</ele>
        <time>2012-06-15T08:37:43Z</time>
      </trkpt>
      <trkpt lat="47.284" lon="4.98943">
        <ele>386.847</ele>
        <time>2012-06-15T08:37:54Z</time>
      </trkpt>
      <trkpt lat="47.28387" lon="4.98925">
        <ele>383.206</ele>
        <time>2012-06-15T08:38:05Z</time>
      </trkpt>
      <trkpt lat="47.28377" lon="4.98912">
        <ele>380.532</ele>
        <time>2012-06-15T08:38:16Z</time>
      </trkpt>
      <trkpt lat="47.28372" lon="4.98898">
        <ele>376.377</ele>
        <time>2012-06-15T08:38:27Z</time>
      </trkpt>
      <trkpt lat="47.28362" lon="4.98872">
        <ele>370.909</ele>
        <time>2012-06-15T08:38:38Z</time>
      </trkpt>
      <trkpt lat="47.28352" lon="4.98855">
        <ele>363.15</ele>
        <time>2012-06-15T08:38:49Z</time>
      </trkpt>
      <trkpt lat="47.28348" lon="4.98843">
        <ele>360.764</ele>
        <time>2012-06-15T08:39:00Z</time>
      </trkpt>
      <trkpt lat="47.28348" lon="4.98823">
        <ele>358.149</ele>
        <time>2012-06-15T08:39:11Z</time>
      </trkpt>
      <trkpt lat="47.2835" lon="4.98803">
        <ele>356.713</ele>
        <time>2012-06-15T08:39:22Z</time>
      </trkpt>
      <trkpt lat="47.28345" lon="4.98788">
        <ele>351.511</ele>
        <time>2012-06-15T08:39:33Z</time>
      </trkpt>
      <trkpt lat="47.28345" lon="4.98772">
        <ele>349.314</ele>
        <time>2012-06-15T08:39:44Z</time>
      </trkpt>
      <trkpt lat="47.28348" lon="4.98753">
        <ele>343.23</ele>
        <time>2012-06-15T08:39:55Z</time>
      </trkpt>
      <trkpt lat="47.28353" lon="4.98742">
        <ele>341.304</ele>
        <time>2012-06-15T08:40:06Z</time>
      </trkpt>
      <trkpt lat="47.28358" lon="4.98722">
        <ele>342.213</ele>
        <time>2012-06-15T08:40:17Z</time>
      </trkpt>
      <trkpt lat="47.28352" lon="4.98698">
        <ele>346.559</ele>
        <time>2012-06-15T08:40:28Z</time>
      </trkpt>
      <trkpt lat="47.28352" lon="4.98678">
        <ele>347.393</ele>
        <time>2012-06-15T08:40:39Z</time>
      </trkpt>
      <trkpt lat="47.28353" lon="4.98675">
        <ele>348.161</ele>
        <time>2012-06-15T08:40:50Z</time>
      </trkpt>
      <trkpt lat="47.28353" lon="4.98675">
        <ele>348.533</ele>
        <time>2012-06-15T08:41:01Z</time>
      </trkpt>
      <trkpt lat="47.28355" lon="4.98672">
        <ele>347.636</ele>
        <time>2012-06-15T08:41:12Z</time>
      </trkpt>
      <trkpt lat="47.28355" lon="4.98672">
        <ele>347.889</ele>
        <time>2012-06-15T08:41:23Z</time>
      </trkpt>
      <trkpt lat="47.28355" lon="4.98672">
        <ele>347.889</ele>
        <time>2012-06-15T08:41:34Z</time>
      </trkpt>
      <trkpt lat="47.28355" lon="4.9867">
        <ele>347.315</ele>
        <time>2012-06-15T08:41:45Z</time>
      </trkpt>
      <trkpt lat="47.28355" lon="4.9867">
        <ele>347.315</ele>
        <time>2012-06-15T08:41:56Z</time>
      </trkpt>
      <trkpt lat="47.28355" lon="4.9867">
        <ele>346.585</ele>
        <time>2012-06-15T08:42:07Z</time>
      </trkpt>
      <trkpt lat="47.28355" lon="4.98668">
        <ele>345.773</ele>
        <time>2012-06-15T08:42:18Z</time>
      </trkpt>
      <trkpt lat="47.28353" lon="4.98653">
        <ele>344.31</ele>
        <time>2012-06-15T08:42:29Z</time>
      </trkpt>
      <trkpt lat="47.28352" lon="4.98637">
        <ele>343.336</ele>
        <time>2012-06-15T08:42:40Z</time>
      </trkpt>
      <trkpt lat="47.28352" lon="4.98633">
        <ele>344.963</ele>
        <time>2012-06-15T08:42:51Z</time>
      </trkpt>
      <trkpt lat="47.28358" lon="4.98608">
        <ele>345.067</ele>
        <time>2012-06-15T08:43:02Z</time>
      </trkpt>
      <trkpt lat="47.2836" lon="4.98592">
        <ele>346.61</ele>
        <time>2012-06-15T08:43:13Z</time>
      </trkpt>
      <trkpt lat="47.28362" lon="4.98567">
        <ele>347.436</ele>
        <time>2012-06-15T08:43:24Z</time>
      </trkpt>
      <trkpt lat="47.28362" lon="4.98548">
        <ele>344.705</ele>
        <time>2012-06-15T08:43:35Z</time>
      </trkpt>
      <trkpt lat="47.28368" lon="4.98527">
        <ele>342.079</ele>
        <time>2012-06-15T08:43:46Z</time>
      </trkpt>
      <trkpt lat="47.28373" lon="4.98505">
        <ele>339.43</ele>
        <time>2012-06-15T08:43:57Z</time>
      </trkpt>
      <trkpt lat="47.28373" lon="4.98483">
        <ele>338.439</ele>
        <time>2012-06-15T08:44:08Z</time>
      </trkpt>
      <trkpt lat="47.2838" lon="4.9846">
        <ele>336.356</ele>
        <time>2012-06-15T08:44:19Z</time>
      </trkpt>
      <trkpt lat="47.28387" lon="4.98442">
        <ele>333.506</ele>
        <time>2012-06-15T08:44:30Z</time>
      </trkpt>
      <trkpt lat="47.28392" lon="4.98422">
        <ele>333.678</ele>
        <time>2012-06-15T08:44:41Z</time>
      </trkpt>
      <trkpt lat="47.28403" lon="4.98413">
        <ele>332.742</ele>
        <time>2012-06-15T08:44:52Z</time>
      </trkpt>
      <trkpt lat="47.28417" lon="4.98413">
        <ele>332.402</ele>
        <time>2012-06-15T08:45:03Z</time>
      </trkpt>
      <trkpt lat="47.28428" lon="4.98413">
        <ele>331.832</ele>
        <time>2012-06-15T08:45:14Z</time>
      </trkpt>
      <trkpt lat="47.28442" lon="4.98412">
        <ele>332.307</ele>
        <time>2012-06-15T08:45:25Z</time>
      </trkpt>
      <trkpt lat="47.28448" lon="4.9841">
        <ele>333.049</ele>
        <time>2012-06-15T08:45:36Z</time>
      </trkpt>
      <trkpt lat="47.28457" lon="4.98408">
        <ele>332.837</ele>
        <time>2012-06-15T08:45:47Z</time>
      </trkpt>
      <trkpt lat="47.28468" lon="4.98405">
        <ele>333.218</ele>
        <time>2012-06-15T08:45:58Z</time>
      </trkpt>
      <trkpt lat="47.2847" lon="4.98397">
        <ele>333.578</ele>
        <time>2012-06-15T08:46:09Z</time>
      </trkpt>
      <trkpt lat="47.2848" lon="4.98387">
        <ele>332.669</ele>
        <time>2012-06-15T08:46:20Z</time>
      </trkpt>
      <trkpt lat="47.28488" lon="4.98377">
        <ele>332.789</ele>
        <time>2012-06-15T08:46:31Z</time>
      </trkpt>
      <trkpt lat="47.28495" lon="4.98368">
        <ele>334.474</ele>
        <time>2012-06-15T08:46:42Z</time>
      </trkpt>
      <trkpt lat="47.28505" lon="4.98352">
        <ele>334.519</ele>
        <time>2012-06-15T08:46:53Z</time>
      </trkpt>
      <trkpt lat="47.28515" lon="4.98342">
        <ele>334.088</ele>
        <time>2012-06-15T08:47:04Z</time>
      </trkpt>
      <trkpt lat="47.2852" lon="4.98332">
        <ele>334.325</ele>
        <time>2012-06-15T08:47:15Z</time>
      </trkpt>
      <trkpt lat="47.28527" lon="4.98313">
        <ele>331.67</ele>
        <time>2012-06-15T08:47:26Z</time>
      </trkpt>
      <trkpt lat="47.28528" lon="4.98307">
        <ele>332.391</ele>
        <time>2012-06-15T08:47:37Z</time>
      </trkpt>
      <trkpt lat="47.28528" lon="4.98302">
        <ele>332.861</ele>
        <time>2012-06-15T08:47:48Z</time>
      </trkpt>
      <trkpt lat="47.28527" lon="4.98293">
        <ele>335.897</ele>
        <time>2012-06-15T08:47:59Z</time>
      </trkpt>
      <trkpt lat="47.28523" lon="4.9829">
        <ele>336.869</ele>
        <time>2012-06-15T08:48:10Z</time>
      </trkpt>
      <trkpt lat="47.2852" lon="4.98283">
        <ele>335.855</ele>
        <time>2012-06-15T08:48:21Z</time>
      </trkpt>
      <trkpt lat="47.28515" lon="4.98278">
        <ele>338.063</ele>
        <time>2012-06-15T08:48:32Z</time>
      </trkpt>
      <trkpt lat="47.28512" lon="4.98275">
        <ele>337.65</ele>
        <time>2012-06-15T08:48:43Z</time>
      </trkpt>
      <trkpt lat="47.28508" lon="4.98272">
        <ele>338.96</ele>
        <time>2012-06-15T08:48:54Z</time>
      </trkpt>
      <trkpt lat="47.28503" lon="4.98262">
        <ele>341.483</ele>
        <time>2012-06-15T08:49:05Z</time>
      </trkpt>
      <trkpt lat="47.28497" lon="4.98258">
        <ele>340.992</ele>
        <time>2012-06-15T08:49:16Z</time>
      </trkpt>
      <trkpt lat="47.2848" lon="4.98232">
        <ele>343.641</ele>
        <time>2012-06-15T08:49:27Z</time>
      </trkpt>
      <trkpt lat="47.28473" lon="4.98237">
        <ele>345.165</ele>
        <time>2012-06-15T08:49:38Z</time>
      </trkpt>
      <trkpt lat="47.28453" lon="4.98228">
        <ele>347.703</ele>
        <time>2012-06-15T08:49:49Z</time>
      </trkpt>
      <trkpt lat="47.2844" lon="4.98225">
        <ele>355.55</ele>
        <time>2012-06-15T08:50:00Z</time>
      </trkpt>
      <trkpt lat="47.28433" lon="4.9821">
        <ele>361.209</ele>
        <time>2012-06-15T08:50:11Z</time>
      </trkpt>
      <trkpt lat="47.28423" lon="4.98207">
        <ele>360.936</ele>
        <time>2012-06-15T08:50:22Z</time>
      </trkpt>
      <trkpt lat="47.28413" lon="4.98188">
        <ele>363.439</ele>
        <time>2012-06-15T08:50:33Z</time>
      </trkpt>
      <trkpt lat="47.28407" lon="4.98173">
        <ele>361.614</ele>
        <time>2012-06-15T08:50:44Z</time>
      </trkpt>
      <trkpt lat="47.28402" lon="4.98153">
        <ele>360.61</ele>
        <time>2012-06-15T08:50:55Z</time>
      </trkpt>
      <trkpt lat="47.28397" lon="4.98137">
        <ele>358.748</ele>
        <time>2012-06-15T08:51:06Z</time>
      </trkpt>
      <trkpt lat="47.28395" lon="4.98122">
        <ele>355.704</ele>
        <time>2012-06-15T08:51:17Z</time>
      </trkpt>
      <trkpt lat="47.28393" lon="4.98105">
        <ele>352.474</ele>
        <time>2012-06-15T08:51:28Z</time>
      </trkpt>
      <trkpt lat="47.28393" lon="4.9809">
        <ele>350.171</ele>
        <time>2012-06-15T08:51:39Z</time>
      </trkpt>
      <trkpt lat="47.28392" lon="4.98083">
        <ele>349.01</ele>
        <time>2012-06-15T08:51:50Z</time>
      </trkpt>
      <trkpt lat="47.28393" lon="4.98077">
        <ele>346.801</ele>
        <time>2012-06-15T08:52:01Z</time>
      </trkpt>
      <trkpt lat="47.28393" lon="4.9807">
        <ele>348.763</ele>
        <time>2012-06-15T08:52:12Z</time>
      </trkpt>
      <trkpt lat="47.28395" lon="4.98062">
        <ele>349.983</ele>
        <time>2012-06-15T08:52:23Z</time>
      </trkpt>
      <trkpt lat="47.28395" lon="4.98055">
        <ele>350.01</ele>
        <time>2012-06-15T08:52:34Z</time>
      </trkpt>
      <trkpt lat="47.28398" lon="4.98045">
        <ele>348.138</ele>
        <time>2012-06-15T08:52:45Z</time>
      </trkpt>
      <trkpt lat="47.284" lon="4.9804">
        <ele>347.59</ele>
        <time>2012-06-15T08:52:56Z</time>
      </trkpt>
      <trkpt lat="47.28405" lon="4.98028">
        <ele>349.506</ele>
        <time>2012-06-15T08:53:07Z</time>
      </trkpt>
      <trkpt lat="47.28408" lon="4.98018">
        <ele>351.067</ele>
        <time>2012-06-15T08:53:18Z</time>
      </trkpt>
      <trkpt lat="47.28408" lon="4.98008">
        <ele>351.105</ele>
        <time>2012-06-15T08:53:29Z</time>
      </trkpt>
      <trkpt lat="47.28415" lon="4.97997">
        <ele>347.871</ele>
        <time>2012-06-15T08:53:40Z</time>
      </trkpt>
      <trkpt lat="47.28417" lon="4.97985">
        <ele>348.833</ele>
        <time>2012-06-15T08:53:51Z</time>
      </trkpt>
      <trkpt lat="47.28425" lon="4.97972">
        <ele>349.175</ele>
        <time>2012-06-15T08:54:02Z</time>
      </trkpt>
      <trkpt lat="47.28427" lon="4.97967">
        <ele>349.246</ele>
        <time>2012-06-15T08:54:13Z</time>
      </trkpt>
      <trkpt lat="47.2843" lon="4.97957">
        <ele>351.283</ele>
        <time>2012-06-15T08:54:24Z</time>
      </trkpt>
      <trkpt lat="47.28435" lon="4.9795">
        <ele>352.607</ele>
        <time>2012-06-15T08:54:35Z</time>
      </trkpt>
      <trkpt lat="47.28443" lon="4.97933">
        <ele>353.616</ele>
        <time>2012-06-15T08:54:46Z</time>
      </trkpt>
      <trkpt lat="47.28452" lon="4.97917">
        <ele>355.649</ele>
        <time>2012-06-15T08:54:57Z</time>
      </trkpt>
      <trkpt lat="47.28457" lon="4.97905">
        <ele>358.389</ele>
        <time>2012-06-15T08:55:08Z</time>
      </trkpt>
      <trkpt lat="47.2846" lon="4.97892">
        <ele>360.495</ele>
        <time>2012-06-15T08:55:19Z</time>
      </trkpt>
      <trkpt lat="47.28463" lon="4.97877">
        <ele>363.612</ele>
        <time>2012-06-15T08:55:30Z</time>
      </trkpt>
      <trkpt lat="47.28468" lon="4.9787">
        <ele>366.537</ele>
        <time>2012-06-15T08:55:41Z</time>
      </trkpt>
      <trkpt lat="47.28473" lon="4.97857">
        <ele>366.303</ele>
        <time>2012-06-15T08:55:52Z</time>
      </trkpt>
      <trkpt lat="47.28478" lon="4.97845">
        <ele>366.894</ele>
        <time>2012-06-15T08:56:03Z</time>
      </trkpt>
      <trkpt lat="47.28483" lon="4.97835">
        <ele>367.134</ele>
        <time>2012-06-15T08:56:14Z</time>
      </trkpt>
      <trkpt lat="47.28492" lon="4.97817">
        <ele>367.978</ele>
        <time>2012-06-15T08:56:25Z</time>
      </trkpt>
      <trkpt lat="47.28498" lon="4.97798">
        <ele>369.931</ele>
        <time>2012-06-15T08:56:36Z</time>
      </trkpt>
      <trkpt lat="47.28503" lon="4.97785">
        <ele>373.822</ele>
        <time>2012-06-15T08:56:47Z</time>
      </trkpt>
      <trkpt lat="47.28507" lon="4.97772">
        <ele>376.336</ele>
        <time>2012-06-15T08:56:58Z</time>
      </trkpt>
      <trkpt lat="47.2851" lon="4.9776">
        <ele>376.37</ele>
        <time>2012-06-15T08:57:09Z</time>
      </trkpt>
      <trkpt lat="47.28513" lon="4.97747">
        <ele>378.602</ele>
        <time>2012-06-15T08:57:20Z</time>
      </trkpt>
      <trkpt lat="47.2852" lon="4.9773">
        <ele>379.864</ele>
        <time>2012-06-15T08:57:31Z</time>
      </trkpt>
      <trkpt lat="47.28527" lon="4.97717">
        <ele>381.783</ele>
        <time>2012-06-15T08:57:42Z</time>
      </trkpt>
      <trkpt lat="47.28532" lon="4.97702">
        <ele>384.665</ele>
        <time>2012-06-15T08:57:53Z</time>
      </trkpt>
      <trkpt lat="47.28535" lon="4.97693">
        <ele>384.925</ele>
        <time>2012-06-15T08:58:04Z</time>
      </trkpt>
      <trkpt lat="47.28542" lon="4.97677">
        <ele>386.232</ele>
        <time>2012-06-15T08:58:15Z</time>
      </trkpt>
      <trkpt lat="47.2855" lon="4.97658">
        <ele>388.156</ele>
        <time>2012-06-15T08:58:26Z</time>
      </trkpt>
      <trkpt lat="47.28558" lon="4.97647">
        <ele>389.526</ele>
        <time>2012-06-15T08:58:37Z</time>
      </trkpt>
      <trkpt lat="47.28565" lon="4.97637">
        <ele>391.456</ele>
        <time>2012-06-15T08:58:48Z</time>
      </trkpt>
      <trkpt lat="47.28573" lon="4.97622">
        <ele>394.269</ele>
        <time>2012-06-15T08:58:59Z</time>
      </trkpt>
      <trkpt lat="47.28577" lon="4.97612">
        <ele>396.257</ele>
        <time>2012-06-15T08:59:10Z</time>
      </trkpt>
      <trkpt lat="47.28583" lon="4.97598">
        <ele>396.934</ele>
        <time>2012-06-15T08:59:21Z</time>
      </trkpt>
      <trkpt lat="47.28588" lon="4.97587">
        <ele>397.896</ele>
        <time>2012-06-15T08:59:32Z</time>
      </trkpt>
      <trkpt lat="47.2859" lon="4.9758">
        <ele>397.415</ele>
        <time>2012-06-15T08:59:43Z</time>
      </trkpt>
      <trkpt lat="47.28597" lon="4.97568">
        <ele>398.987</ele>
        <time>2012-06-15T08:59:54Z</time>
      </trkpt>
      <trkpt lat="47.28602" lon="4.97558">
        <ele>400.579</ele>
        <time>2012-06-15T09:00:05Z</time>
      </trkpt>
      <trkpt lat="47.28608" lon="4.97535">
        <ele>405.964</ele>
        <time>2012-06-15T09:00:16Z</time>
      </trkpt>
      <trkpt lat="47.28612" lon="4.97525">
        <ele>408.262</ele>
        <time>2012-06-15T09:00:27Z</time>
      </trkpt>
      <trkpt lat="47.2862" lon="4.97503">
        <ele>409.313</ele>
        <time>2012-06-15T09:00:38Z</time>
      </trkpt>
      <trkpt lat="47.28623" lon="4.97492">
        <ele>412.427</ele>
        <time>2012-06-15T09:00:49Z</time>
      </trkpt>
      <trkpt lat="47.28627" lon="4.97477">
        <ele>413.136</ele>
        <time>2012-06-15T09:01:00Z</time>
      </trkpt>
      <trkpt lat="47.2863" lon="4.97475">
        <ele>413.78</ele>
        <time>2012-06-15T09:01:11Z</time>
      </trkpt>
      <trkpt lat="47.28632" lon="4.97457">
        <ele>414.771</ele>
        <time>2012-06-15T09:01:22Z</time>
      </trkpt>
      <trkpt lat="47.28642" lon="4.97428">
        <ele>415.849</ele>
        <time>2012-06-15T09:01:33Z</time>
      </trkpt>
      <trkpt lat="47.28647" lon="4.97418">
        <ele>416.924</ele>
        <time>2012-06-15T09:01:44Z</time>
      </trkpt>
      <trkpt lat="47.28652" lon="4.97398">
        <ele>418.387</ele>
        <time>2012-06-15T09:01:55Z</time>
      </trkpt>
      <trkpt lat="47.28655" lon="4.97385">
        <ele>417.553</ele>
        <time>2012-06-15T09:02:06Z</time>
      </trkpt>
      <trkpt lat="47.28662" lon="4.97363">
        <ele>418.313</ele>
        <time>2012-06-15T09:02:17Z</time>
      </trkpt>
      <trkpt lat="47.28668" lon="4.97342">
        <ele>419.844</ele>
        <time>2012-06-15T09:02:28Z</time>
      </trkpt>
      <trkpt lat="47.28678" lon="4.97317">
        <ele>419.951</ele>
        <time>2012-06-15T09:02:39Z</time>
      </trkpt>
      <trkpt lat="47.28682" lon="4.9731">
        <ele>422.92</ele>
        <time>2012-06-15T09:02:50Z</time>
      </trkpt>
      <trkpt lat="47.28685" lon="4.97302">
        <ele>424.529</ele>
        <time>2012-06-15T09:03:01Z</time>
      </trkpt>
      <trkpt lat="47.28693" lon="4.97285">
        <ele>424.107</ele>
        <time>2012-06-15T09:03:12Z</time>
      </trkpt>
      <trkpt lat="47.28698" lon="4.97275">
        <ele>422.346</ele>
        <time>2012-06-15T09:03:23Z</time>
      </trkpt>
      <trkpt lat="47.2871" lon="4.97252">
        <ele>423.615</ele>
        <time>2012-06-15T09:03:34Z</time>
      </trkpt>
      <trkpt lat="47.28718" lon="4.97237">
        <ele>422.821</ele>
        <time>2012-06-15T09:03:45Z</time>
      </trkpt>
      <trkpt lat="47.28728" lon="4.9722">
        <ele>422.238</ele>
        <time>2012-06-15T09:03:56Z</time>
      </trkpt>
      <trkpt lat="47.28735" lon="4.9721">
        <ele>424.446</ele>
        <time>2012-06-15T09:04:07Z</time>
      </trkpt>
      <trkpt lat="47.28747" lon="4.97193">
        <ele>424.61</ele>
        <time>2012-06-15T09:04:18Z</time>
      </trkpt>
      <trkpt lat="47.28757" lon="4.9718">
        <ele>424.488</ele>
        <time>2012-06-15T09:04:29Z</time>
      </trkpt>
      <trkpt lat="47.28768" lon="4.97165">
        <ele>426.051</ele>
        <time>2012-06-15T09:04:40Z</time>
      </trkpt>
      <trkpt lat="47.2878" lon="4.97152">
        <ele>425.146</ele>
        <time>2012-06-15T09:04:51Z</time>
      </trkpt>
      <trkpt lat="47.28795" lon="4.97143">
        <ele>422.056</ele>
        <time>2012-06-15T09:05:02Z</time>
      </trkpt>
      <trkpt lat="47.28807" lon="4.97135">
        <ele>423.279</ele>
        <time>2012-06-15T09:05:13Z</time>
      </trkpt>
      <trkpt lat="47.28815" lon="4.97127">
        <ele>423.73</ele>
        <time>2012-06-15T09:05:24Z</time>
      </trkpt>
      <trkpt lat="47.28823" lon="4.97118">
        <ele>425.25</ele>
        <time>2012-06-15T09:05:35Z</time>
      </trkpt>
      <trkpt lat="47.28828" lon="4.9711">
        <ele>425.446</ele>
        <time>2012-06-15T09:05:46Z</time>
      </trkpt>
      <trkpt lat="47.28838" lon="4.97097">
        <ele>424.632</ele>
        <time>2012-06-15T09:05:57Z</time>
      </trkpt>
      <trkpt lat="47.28845" lon="4.97085">
        <ele>425.127</ele>
        <time>2012-06-15T09:06:08Z</time>
      </trkpt>
      <trkpt lat="47.28858" lon="4.97067">
        <ele>428.372</ele>
        <time>2012-06-15T09:06:19Z</time>
      </trkpt>
      <trkpt lat="47.28868" lon="4.97058">
        <ele>429.183</ele>
        <time>2012-06-15T09:06:30Z</time>
      </trkpt>
      <trkpt lat="47.28878" lon="4.97047">
        <ele>432.915</ele>
        <time>2012-06-15T09:06:41Z</time>
      </trkpt>
      <trkpt lat="47.28897" lon="4.97033">
        <ele>434.53</ele>
        <time>2012-06-15T09:06:52Z</time>
      </trkpt>
      <trkpt lat="47.28912" lon="4.97022">
        <ele>432.924</ele>
        <time>2012-06-15T09:07:03Z</time>
      </trkpt>
      <trkpt lat="47.28928" lon="4.97018">
        <ele>431.419</ele>
        <time>2012-06-15T09:07:14Z</time>
      </trkpt>
      <trkpt lat="47.2894" lon="4.97017">
        <ele>430.743</ele>
        <time>2012-06-15T09:07:25Z</time>
      </trkpt>
      <trkpt lat="47.28953" lon="4.97003">
        <ele>430.554</ele>
        <time>2012-06-15T09:07:36Z</time>
      </trkpt>
      <trkpt lat="47.28965" lon="4.96995">
        <ele>430.843</ele>
        <time>2012-06-15T09:07:47Z</time>
      </trkpt>
      <trkpt lat="47.28975" lon="4.96987">
        <ele>430.603</ele>
        <time>2012-06-15T09:07:58Z</time>
      </trkpt>
      <trkpt lat="47.28983" lon="4.96982">
        <ele>428.318</ele>
        <time>2012-06-15T09:08:09Z</time>
      </trkpt>
      <trkpt lat="47.28993" lon="4.96967">
        <ele>426.558</ele>
        <time>2012-06-15T09:08:20Z</time>
      </trkpt>
      <trkpt lat="47.28998" lon="4.96952">
        <ele>427.143</ele>
        <time>2012-06-15T09:08:31Z</time>
      </trkpt>
      <trkpt lat="47.29008" lon="4.96942">
        <ele>427.577</ele>
        <time>2012-06-15T09:08:42Z</time>
      </trkpt>
      <trkpt lat="47.2902" lon="4.96923">
        <ele>425.843</ele>
        <time>2012-06-15T09:08:53Z</time>
      </trkpt>
      <trkpt lat="47.29028" lon="4.96915">
        <ele>425.613</ele>
        <time>2012-06-15T09:09:04Z</time>
      </trkpt>
      <trkpt lat="47.29042" lon="4.96892">
        <ele>425.447</ele>
        <time>2012-06-15T09:09:15Z</time>
      </trkpt>
      <trkpt lat="47.29045" lon="4.96875">
        <ele>425.849</ele>
        <time>2012-06-15T09:09:26Z</time>
      </trkpt>
      <trkpt lat="47.29048" lon="4.96858">
        <ele>429.05</ele>
        <time>2012-06-15T09:09:37Z</time>
      </trkpt>
      <trkpt lat="47.29055" lon="4.9684">
        <ele>431.572</ele>
        <time>2012-06-15T09:09:48Z</time>
      </trkpt>
      <trkpt lat="47.29062" lon="4.9682">
        <ele>434.247</ele>
        <time>2012-06-15T09:09:59Z</time>
      </trkpt>
      <trkpt lat="47.29075" lon="4.96807">
        <ele>431.351</ele>
        <time>2012-06-15T09:10:10Z</time>
      </trkpt>
      <trkpt lat="47.29092" lon="4.96793">
        <ele>428.585</ele>
        <time>2012-06-15T09:10:21Z</time>
      </trkpt>
      <trkpt lat="47.29098" lon="4.96777">
        <ele>428.808</ele>
        <time>2012-06-15T09:10:32Z</time>
      </trkpt>
      <trkpt lat="47.29098" lon="4.96775">
        <ele>428.768</ele>
        <time>2012-06-15T09:10:43Z</time>
      </trkpt>
      <trkpt lat="47.29103" lon="4.96765">
        <ele>428.295</ele>
        <time>2012-06-15T09:10:54Z</time>
      </trkpt>
      <trkpt lat="47.29112" lon="4.96748">
        <ele>434.941</ele>
        <time>2012-06-15T09:11:05Z</time>
      </trkpt>
      <trkpt lat="47.2912" lon="4.96742">
        <ele>435.836</ele>
        <time>2012-06-15T09:11:16Z</time>
      </trkpt>
      <trkpt lat="47.29132" lon="4.96728">
        <ele>437.667</ele>
        <time>2012-06-15T09:11:27Z</time>
      </trkpt>
      <trkpt lat="47.29145" lon="4.9672">
        <ele>433.976</ele>
        <time>2012-06-15T09:11:38Z</time>
      </trkpt>
      <trkpt lat="47.29165" lon="4.96712">
        <ele>434.281</ele>
        <time>2012-06-15T09:11:49Z</time>
      </trkpt>
      <trkpt lat="47.29173" lon="4.96705">
        <ele>430.857</ele>
        <time>2012-06-15T09:12:00Z</time>
      </trkpt>
      <trkpt lat="47.29183" lon="4.96692">
        <ele>428.438</ele>
        <time>2012-06-15T09:12:11Z</time>
      </trkpt>
      <trkpt lat="47.2919" lon="4.96682">
        <ele>429.446</ele>
        <time>2012-06-15T09:12:22Z</time>
      </trkpt>
      <trkpt lat="47.29202" lon="4.96673">
        <ele>426.068</ele>
        <time>2012-06-15T09:12:33Z</time>
      </trkpt>
      <trkpt lat="47.29222" lon="4.96655">
        <ele>418.594</ele>
        <time>2012-06-15T09:12:44Z</time>
      </trkpt>
      <trkpt lat="47.2923" lon="4.96635">
        <ele>424.035</ele>
        <time>2012-06-15T09:12:55Z</time>
      </trkpt>
      <trkpt lat="47.2923" lon="4.9662">
        <ele>431.732</ele>
        <time>2012-06-15T09:13:06Z</time>
      </trkpt>
      <trkpt lat="47.2924" lon="4.96607">
        <ele>428.525</ele>
        <time>2012-06-15T09:13:17Z</time>
      </trkpt>
      <trkpt lat="47.29242" lon="4.9658">
        <ele>440.663</ele>
        <time>2012-06-15T09:13:28Z</time>
      </trkpt>
      <trkpt lat="47.29242" lon="4.96565">
        <ele>443.702</ele>
        <time>2012-06-15T09:13:39Z</time>
      </trkpt>
      <trkpt lat="47.29247" lon="4.96557">
        <ele>442.994</ele>
        <time>2012-06-15T09:13:50Z</time>
      </trkpt>
      <trkpt lat="47.29257" lon="4.96538">
        <ele>438.4</ele>
        <time>2012-06-15T09:14:01Z</time>
      </trkpt>
      <trkpt lat="47.2926" lon="4.96522">
        <ele>439.399</ele>
        <time>2012-06-15T09:14:12Z</time>
      </trkpt>
      <trkpt lat="47.29268" lon="4.96503">
        <ele>434.634</ele>
        <time>2012-06-15T09:14:23Z</time>
      </trkpt>
      <trkpt lat="47.29272" lon="4.96488">
        <ele>433.043</ele>
        <time>2012-06-15T09:14:34Z</time>
      </trkpt>
      <trkpt lat="47.29278" lon="4.96477">
        <ele>436.746</ele>
        <time>2012-06-15T09:14:45Z</time>
      </trkpt>
      <trkpt lat="47.2928" lon="4.96465">
        <ele>439.962</ele>
        <time>2012-06-15T09:14:56Z</time>
      </trkpt>
      <trkpt lat="47.29283" lon="4.96447">
        <ele>443.459</ele>
        <time>2012-06-15T09:15:07Z</time>
      </trkpt>
      <trkpt lat="47.29292" lon="4.96425">
        <ele>441.689</ele>
        <time>2012-06-15T09:15:18Z</time>
      </trkpt>
      <trkpt lat="47.2929" lon="4.96405">
        <ele>450.766</ele>
        <time>2012-06-15T09:15:29Z</time>
      </trkpt>
      <trkpt lat="47.29298" lon="4.96395">
        <ele>446.8</ele>
        <time>2012-06-15T09:15:40Z</time>
      </trkpt>
      <trkpt lat="47.29303" lon="4.96385">
        <ele>445.565</ele>
        <time>2012-06-15T09:15:51Z</time>
      </trkpt>
      <trkpt lat="47.29307" lon="4.96363">
        <ele>447.346</ele>
        <time>2012-06-15T09:16:02Z</time>
      </trkpt>
      <trkpt lat="47.29308" lon="4.9634">
        <ele>452.109</ele>
        <time>2012-06-15T09:16:13Z</time>
      </trkpt>
      <trkpt lat="47.29313" lon="4.96318">
        <ele>452.686</ele>
        <time>2012-06-15T09:16:24Z</time>
      </trkpt>
      <trkpt lat="47.29318" lon="4.96297">
        <ele>452.2</ele>
        <time>2012-06-15T09:16:35Z</time>
      </trkpt>
      <trkpt lat="47.29322" lon="4.96275">
        <ele>458.046</ele>
        <time>2012-06-15T09:16:46Z</time>
      </trkpt>
      <trkpt lat="47.29328" lon="4.96252">
        <ele>460.93</ele>
        <time>2012-06-15T09:16:57Z</time>
      </trkpt>
      <trkpt lat="47.29328" lon="4.9623">
        <ele>463.254</ele>
        <time>2012-06-15T09:17:08Z</time>
      </trkpt>
      <trkpt lat="47.29335" lon="4.96217">
        <ele>459.874</ele>
        <time>2012-06-15T09:17:19Z</time>
      </trkpt>
      <trkpt lat="47.29338" lon="4.9619">
        <ele>461.05</ele>
        <time>2012-06-15T09:17:30Z</time>
      </trkpt>
      <trkpt lat="47.2935" lon="4.96165">
        <ele>453.14</ele>
        <time>2012-06-15T09:17:41Z</time>
      </trkpt>
      <trkpt lat="47.29355" lon="4.96145">
        <ele>454.982</ele>
        <time>2012-06-15T09:17:52Z</time>
      </trkpt>
      <trkpt lat="47.29357" lon="4.96133">
        <ele>452.492</ele>
        <time>2012-06-15T09:18:03Z</time>
      </trkpt>
      <trkpt lat="47.29358" lon="4.96123">
        <ele>454.898</ele>
        <time>2012-06-15T09:18:14Z</time>
      </trkpt>
      <trkpt lat="47.29363" lon="4.96103">
        <ele>453.952</ele>
        <time>2012-06-15T09:18:25Z</time>
      </trkpt>
      <trkpt lat="47.29367" lon="4.96082">
        <ele>457.926</ele>
        <time>2012-06-15T09:18:36Z</time>
      </trkpt>
      <trkpt lat="47.29363" lon="4.9605">
        <ele>470.357</ele>
        <time>2012-06-15T09:18:47Z</time>
      </trkpt>
      <trkpt lat="47.29363" lon="4.96033">
        <ele>472.192</ele>
        <time>2012-06-15T09:18:58Z</time>
      </trkpt>
      <trkpt lat="47.29372" lon="4.96018">
        <ele>461.845</ele>
        <time>2012-06-15T09:19:09Z</time>
      </trkpt>
      <trkpt lat="47.29378" lon="4.96007">
        <ele>454.182</ele>
        <time>2012-06-15T09:19:20Z</time>
      </trkpt>
      <trkpt lat="47.29387" lon="4.95985">
        <ele>448.101</ele>
        <time>2012-06-15T09:19:31Z</time>
      </trkpt>
      <trkpt lat="47.29393" lon="4.95977">
        <ele>452.238</ele>
        <time>2012-06-15T09:19:42Z</time>
      </trkpt>
      <trkpt lat="47.29407" lon="4.9597">
        <ele>444.273</ele>
        <time>2012-06-15T09:19:53Z</time>
      </trkpt>
      <trkpt lat="47.29417" lon="4.95967">
        <ele>438.649</ele>
        <time>2012-06-15T09:20:04Z</time>
      </trkpt>
      <trkpt lat="47.29427" lon="4.95973">
        <ele>433.24</ele>
        <time>2012-06-15T09:20:15Z</time>
      </trkpt>
      <trkpt lat="47.2943" lon="4.95972">
        <ele>434.078</ele>
        <time>2012-06-15T09:20:26Z</time>
      </trkpt>
      <trkpt lat="47.29442" lon="4.95978">
        <ele>429.45</ele>
        <time>2012-06-15T09:20:37Z</time>
      </trkpt>
      <trkpt lat="47.2945" lon="4.95987">
        <ele>424.842</ele>
        <time>2012-06-15T09:20:48Z</time>
      </trkpt>
      <trkpt lat="47.2946" lon="4.9599">
        <ele>422.737</ele>
        <time>2012-06-15T09:20:59Z</time>
      </trkpt>
      <trkpt lat="47.29463" lon="4.95992">
        <ele>422.553</ele>
        <time>2012-06-15T09:21:10Z</time>
      </trkpt>
      <trkpt lat="47.29472" lon="4.95997">
        <ele>420.79</ele>
        <time>2012-06-15T09:21:21Z</time>
      </trkpt>
      <trkpt lat="47.29482" lon="4.96013">
        <ele>420.487</ele>
        <time>2012-06-15T09:21:32Z</time>
      </trkpt>
      <trkpt lat="47.29488" lon="4.9602">
        <ele>417.068</ele>
        <time>2012-06-15T09:21:43Z</time>
      </trkpt>
      <trkpt lat="47.29497" lon="4.96032">
        <ele>415.778</ele>
        <time>2012-06-15T09:21:54Z</time>
      </trkpt>
      <trkpt lat="47.29503" lon="4.9604">
        <ele>415.671</ele>
        <time>2012-06-15T09:22:05Z</time>
      </trkpt>
      <trkpt lat="47.29503" lon="4.96042">
        <ele>416.55</ele>
        <time>2012-06-15T09:22:16Z</time>
      </trkpt>
      <trkpt lat="47.29507" lon="4.96052">
        <ele>414.01</ele>
        <time>2012-06-15T09:22:27Z</time>
      </trkpt>
      <trkpt lat="47.2951" lon="4.96068">
        <ele>411.375</ele>
        <time>2012-06-15T09:22:38Z</time>
      </trkpt>
      <trkpt lat="47.29515" lon="4.96082">
        <ele>410.853</ele>
        <time>2012-06-15T09:22:49Z</time>
      </trkpt>
      <trkpt lat="47.2952" lon="4.96095">
        <ele>410.23</ele>
        <time>2012-06-15T09:23:00Z</time>
      </trkpt>
      <trkpt lat="47.29528" lon="4.96112">
        <ele>405.366</ele>
        <time>2012-06-15T09:23:11Z</time>
      </trkpt>
      <trkpt lat="47.29535" lon="4.96123">
        <ele>403.662</ele>
        <time>2012-06-15T09:23:22Z</time>
      </trkpt>
      <trkpt lat="47.2954" lon="4.96135">
        <ele>401.354</ele>
        <time>2012-06-15T09:23:33Z</time>
      </trkpt>
      <trkpt lat="47.29543" lon="4.96145">
        <ele>400.172</ele>
        <time>2012-06-15T09:23:44Z</time>
      </trkpt>
      <trkpt lat="47.29552" lon="4.96153">
        <ele>396.667</ele>
        <time>2012-06-15T09:23:55Z</time>
      </trkpt>
      <trkpt lat="47.29557" lon="4.96168">
        <ele>396.588</ele>
        <time>2012-06-15T09:24:06Z</time>
      </trkpt>
      <trkpt lat="47.2956" lon="4.96175">
        <ele>395.703</ele>
        <time>2012-06-15T09:24:17Z</time>
      </trkpt>
      <trkpt lat="47.2956" lon="4.96185">
        <ele>396.561</ele>
        <time>2012-06-15T09:24:28Z</time>
      </trkpt>
      <trkpt lat="47.29567" lon="4.96195">
        <ele>392.126</ele>
        <time>2012-06-15T09:24:39Z</time>
      </trkpt>
      <trkpt lat="47.29575" lon="4.96215">
        <ele>385.228</ele>
        <time>2012-06-15T09:24:50Z</time>
      </trkpt>
      <trkpt lat="47.29582" lon="4.96232">
        <ele>382.376</ele>
        <time>2012-06-15T09:25:01Z</time>
      </trkpt>
      <trkpt lat="47.29587" lon="4.9625">
        <ele>377.784</ele>
        <time>2012-06-15T09:25:12Z</time>
      </trkpt>
      <trkpt lat="47.29592" lon="4.96265">
        <ele>374.631</ele>
        <time>2012-06-15T09:25:23Z</time>
      </trkpt>
      <trkpt lat="47.29597" lon="4.96273">
        <ele>370.897</ele>
        <time>2012-06-15T09:25:34Z</time>
      </trkpt>
      <trkpt lat="47.29608" lon="4.96293">
        <ele>364.134</ele>
        <time>2012-06-15T09:25:45Z</time>
      </trkpt>
      <trkpt lat="47.2961" lon="4.96302">
        <ele>364.42</ele>
        <time>2012-06-15T09:25:56Z</time>
      </trkpt>
      <trkpt lat="47.29615" lon="4.96312">
        <ele>360.567</ele>
        <time>2012-06-15T09:26:07Z</time>
      </trkpt>
      <trkpt lat="47.29627" lon="4.96335">
        <ele>351.076</ele>
        <time>2012-06-15T09:26:18Z</time>
      </trkpt>
      <trkpt lat="47.29633" lon="4.9635">
        <ele>348.602</ele>
        <time>2012-06-15T09:26:29Z</time>
      </trkpt>
      <trkpt lat="47.29643" lon="4.96367">
        <ele>341.234</ele>
        <time>2012-06-15T09:26:40Z</time>
      </trkpt>
      <trkpt lat="47.2965" lon="4.96383">
        <ele>338.993</ele>
        <time>2012-06-15T09:26:51Z</time>
      </trkpt>
      <trkpt lat="47.29657" lon="4.96403">
        <ele>334.757</ele>
        <time>2012-06-15T09:27:02Z</time>
      </trkpt>
      <trkpt lat="47.29668" lon="4.96425">
        <ele>329.037</ele>
        <time>2012-06-15T09:27:13Z</time>
      </trkpt>
      <trkpt lat="47.29675" lon="4.96435">
        <ele>326.887</ele>
        <time>2012-06-15T09:27:24Z</time>
      </trkpt>
      <trkpt lat="47.29683" lon="4.96455">
        <ele>328.116</ele>
        <time>2012-06-15T09:27:35Z</time>
      </trkpt>
      <trkpt lat="47.29682" lon="4.9647">
        <ele>328.728</ele>
        <time>2012-06-15T09:27:46Z</time>
      </trkpt>
      <trkpt lat="47.2968" lon="4.96487">
        <ele>329.457</ele>
        <time>2012-06-15T09:27:57Z</time>
      </trkpt>
      <trkpt lat="47.2968" lon="4.9651">
        <ele>326.969</ele>
        <time>2012-06-15T09:28:08Z</time>
      </trkpt>
      <trkpt lat="47.2968" lon="4.96528">
        <ele>330.46</ele>
        <time>2012-06-15T09:28:19Z</time>
      </trkpt>
      <trkpt lat="47.29675" lon="4.96543">
        <ele>331.574</ele>
        <time>2012-06-15T09:28:30Z</time>
      </trkpt>
      <trkpt lat="47.29675" lon="4.96558">
        <ele>332.893</ele>
        <time>2012-06-15T09:28:41Z</time>
      </trkpt>
      <trkpt lat="47.29675" lon="4.96568">
        <ele>333.026</ele>
        <time>2012-06-15T09:28:52Z</time>
      </trkpt>
      <trkpt lat="47.29678" lon="4.96582">
        <ele>330.29</ele>
        <time>2012-06-15T09:29:03Z</time>
      </trkpt>
      <trkpt lat="47.29675" lon="4.96593">
        <ele>328.745</ele>
        <time>2012-06-15T09:29:14Z</time>
      </trkpt>
      <trkpt lat="47.29673" lon="4.96602">
        <ele>327.829</ele>
        <time>2012-06-15T09:29:25Z</time>
      </trkpt>
      <trkpt lat="47.29662" lon="4.96622">
        <ele>326.006</ele>
        <time>2012-06-15T09:29:36Z</time>
      </trkpt>
      <trkpt lat="47.29662" lon="4.96628">
        <ele>325.317</ele>
        <time>2012-06-15T09:29:47Z</time>
      </trkpt>
      <trkpt lat="47.2966" lon="4.96637">
        <ele>324.413</ele>
        <time>2012-06-15T09:29:58Z</time>
      </trkpt>
      <trkpt lat="47.29658" lon="4.9664">
        <ele>322.716</ele>
        <time>2012-06-15T09:30:09Z</time>
      </trkpt>
      <trkpt lat="47.2965" lon="4.9666">
        <ele>328.857</ele>
        <time>2012-06-15T09:30:20Z</time>
      </trkpt>
      <trkpt lat="47.29643" lon="4.96677">
        <ele>332.869</ele>
        <time>2012-06-15T09:30:31Z</time>
      </trkpt>
      <trkpt lat="47.29625" lon="4.96695">
        <ele>347.846</ele>
        <time>2012-06-15T09:30:42Z</time>
      </trkpt>
      <trkpt lat="47.29608" lon="4.9672">
        <ele>355.353</ele>
        <time>2012-06-15T09:30:53Z</time>
      </trkpt>
      <trkpt lat="47.29603" lon="4.96733">
        <ele>355.031</ele>
        <time>2012-06-15T09:31:04Z</time>
      </trkpt>
      <trkpt lat="47.29602" lon="4.96738">
        <ele>353.955</ele>
        <time>2012-06-15T09:31:15Z</time>
      </trkpt>
      <trkpt lat="47.296" lon="4.96742">
        <ele>353.262</ele>
        <time>2012-06-15T09:31:26Z</time>
      </trkpt>
      <trkpt lat="47.29598" lon="4.96747">
        <ele>352.523</ele>
        <time>2012-06-15T09:31:37Z</time>
      </trkpt>
      <trkpt lat="47.29597" lon="4.9675">
        <ele>348.848</ele>
        <time>2012-06-15T09:31:48Z</time>
      </trkpt>
      <trkpt lat="47.29593" lon="4.96755">
        <ele>347.04</ele>
        <time>2012-06-15T09:31:59Z</time>
      </trkpt>
      <trkpt lat="47.29592" lon="4.96762">
        <ele>345.867</ele>
        <time>2012-06-15T09:32:10Z</time>
      </trkpt>
      <trkpt lat="47.29593" lon="4.96762">
        <ele>346.001</ele>
        <time>2012-06-15T09:32:21Z</time>
      </trkpt>
      <trkpt lat="47.2959" lon="4.96763">
        <ele>343.021</ele>
        <time>2012-06-15T09:32:32Z</time>
      </trkpt>
      <trkpt lat="47.29592" lon="4.96763">
        <ele>341.622</ele>
        <time>2012-06-15T09:32:43Z</time>
      </trkpt>
      <trkpt lat="47.2959" lon="4.96762">
        <ele>339.358</ele>
        <time>2012-06-15T09:32:54Z</time>
      </trkpt>
      <trkpt lat="47.2959" lon="4.9676">
        <ele>339.148</ele>
        <time>2012-06-15T09:33:05Z</time>
      </trkpt>
      <trkpt lat="47.2959" lon="4.9676">
        <ele>339.148</ele>
        <time>2012-06-15T09:33:16Z</time>
      </trkpt>
      <trkpt lat="47.2959" lon="4.96762">
        <ele>341.028</ele>
        <time>2012-06-15T09:33:27Z</time>
      </trkpt>
      <trkpt lat="47.29588" lon="4.96765">
        <ele>342.035</ele>
        <time>2012-06-15T09:33:38Z</time>
      </trkpt>
      <trkpt lat="47.2959" lon="4.96768">
        <ele>342.214</ele>
        <time>2012-06-15T09:33:49Z</time>
      </trkpt>
      <trkpt lat="47.29592" lon="4.96773">
        <ele>341.767</ele>
        <time>2012-06-15T09:34:00Z</time>
      </trkpt>
      <trkpt lat="47.29593" lon="4.96777">
        <ele>339.551</ele>
        <time>2012-06-15T09:34:11Z</time>
      </trkpt>
      <trkpt lat="47.29592" lon="4.96783">
        <ele>336.407</ele>
        <time>2012-06-15T09:34:22Z</time>
      </trkpt>
      <trkpt lat="47.29595" lon="4.9679">
        <ele>330.95</ele>
        <time>2012-06-15T09:34:33Z</time>
      </trkpt>
      <trkpt lat="47.29598" lon="4.96792">
        <ele>326.674</ele>
        <time>2012-06-15T09:34:44Z</time>
      </trkpt>
      <trkpt lat="47.296" lon="4.96795">
        <ele>319.746</ele>
        <time>2012-06-15T09:34:55Z</time>
      </trkpt>
      <trkpt lat="47.296" lon="4.96797">
        <ele>318.02</ele>
        <time>2012-06-15T09:35:06Z</time>
      </trkpt>
      <trkpt lat="47.29603" lon="4.96808">
        <ele>304.303</ele>
        <time>2012-06-15T09:35:17Z</time>
      </trkpt>
      <trkpt lat="47.29613" lon="4.9682">
        <ele>283.213</ele>
        <time>2012-06-15T09:35:28Z</time>
      </trkpt>
      <trkpt lat="47.29623" lon="4.96825">
        <ele>263.588</ele>
        <time>2012-06-15T09:35:39Z</time>
      </trkpt>
      <trkpt lat="47.29628" lon="4.96827">
        <ele>253.822</ele>
        <time>2012-06-15T09:35:50Z</time>
      </trkpt>
      <trkpt lat="47.29637" lon="4.96833">
        <ele>240.089</ele>
        <time>2012-06-15T09:36:01Z</time>
      </trkpt>
      <trkpt lat="47.29642" lon="4.96848">
        <ele>235.539</ele>
        <time>2012-06-15T09:36:12Z</time>
      </trkpt>
      <trkpt lat="47.29647" lon="4.96857">
        <ele>229.742</ele>
        <time>2012-06-15T09:36:23Z</time>
      </trkpt>
      <trkpt lat="47.29653" lon="4.96862">
        <ele>223.912</ele>
        <time>2012-06-15T09:36:34Z</time>
      </trkpt>
      <trkpt lat="47.29658" lon="4.96867">
        <ele>217.057</ele>
        <time>2012-06-15T09:36:45Z</time>
      </trkpt>
      <trkpt lat="47.29665" lon="4.96865">
        <ele>205.933</ele>
        <time>2012-06-15T09:36:56Z</time>
      </trkpt>
      <trkpt lat="47.29665" lon="4.96867">
        <ele>206.466</ele>
        <time>2012-06-15T09:37:07Z</time>
      </trkpt>
      <trkpt lat="47.29667" lon="4.96865">
        <ele>200.559</ele>
        <time>2012-06-15T09:37:18Z</time>
      </trkpt>
      <trkpt lat="47.29667" lon="4.96865">
        <ele>200.559</ele>
        <time>2012-06-15T09:37:29Z</time>
      </trkpt>
      <trkpt lat="47.29668" lon="4.96865">
        <ele>198.675</ele>
        <time>2012-06-15T09:37:40Z</time>
      </trkpt>
      <trkpt lat="47.29668" lon="4.96867">
        <ele>196.791</ele>
        <time>2012-06-15T09:37:51Z</time>
      </trkpt>
      <trkpt lat="47.29672" lon="4.96865">
        <ele>194.24</ele>
        <time>2012-06-15T09:38:02Z</time>
      </trkpt>
      <trkpt lat="47.29672" lon="4.96853">
        <ele>191.164</ele>
        <time>2012-06-15T09:38:13Z</time>
      </trkpt>
      <trkpt lat="47.29677" lon="4.9685">
        <ele>184.722</ele>
        <time>2012-06-15T09:38:24Z</time>
      </trkpt>
      <trkpt lat="47.29677" lon="4.9684">
        <ele>185.709</ele>
        <time>2012-06-15T09:38:35Z</time>
      </trkpt>
      <trkpt lat="47.29668" lon="4.96837">
        <ele>195.679</ele>
        <time>2012-06-15T09:38:46Z</time>
      </trkpt>
      <trkpt lat="47.29662" lon="4.96833">
        <ele>207.426</ele>
        <time>2012-06-15T09:38:57Z</time>
      </trkpt>
      <trkpt lat="47.29655" lon="4.96827">
        <ele>227.244</ele>
        <time>2012-06-15T09:39:08Z</time>
      </trkpt>
      <trkpt lat="47.29647" lon="4.96823">
        <ele>245.782</ele>
        <time>2012-06-15T09:39:19Z</time>
      </trkpt>
      <trkpt lat="47.2964" lon="4.96818">
        <ele>258.904</ele>
        <time>2012-06-15T09:39:30Z</time>
      </trkpt>
      <trkpt lat="47.29628" lon="4.96817">
        <ele>277.66</ele>
        <time>2012-06-15T09:39:41Z</time>
      </trkpt>
      <trkpt lat="47.29625" lon="4.96817">
        <ele>291.237</ele>
        <time>2012-06-15T09:39:52Z</time>
      </trkpt>
      <trkpt lat="47.29627" lon="4.96817">
        <ele>294.996</ele>
        <time>2012-06-15T09:40:03Z</time>
      </trkpt>
      <trkpt lat="47.29628" lon="4.96812">
        <ele>295.655</ele>
        <time>2012-06-15T09:40:14Z</time>
      </trkpt>
      <trkpt lat="47.29628" lon="4.9681">
        <ele>297.581</ele>
        <time>2012-06-15T09:40:25Z</time>
      </trkpt>
      <trkpt lat="47.29625" lon="4.96817">
        <ele>306.212</ele>
        <time>2012-06-15T09:40:36Z</time>
      </trkpt>
      <trkpt lat="47.29625" lon="4.96817">
        <ele>304.857</ele>
        <time>2012-06-15T09:40:47Z</time>
      </trkpt>
      <trkpt lat="47.29625" lon="4.96813">
        <ele>302.324</ele>
        <time>2012-06-15T09:40:58Z</time>
      </trkpt>
      <trkpt lat="47.29625" lon="4.9681">
        <ele>299.602</ele>
        <time>2012-06-15T09:41:09Z</time>
      </trkpt>
      <trkpt lat="47.2963" lon="4.9681">
        <ele>281.501</ele>
        <time>2012-06-15T09:41:20Z</time>
      </trkpt>
      <trkpt lat="47.2963" lon="4.96807">
        <ele>276.549</ele>
        <time>2012-06-15T09:41:31Z</time>
      </trkpt>
      <trkpt lat="47.29632" lon="4.96807">
        <ele>265.999</ele>
        <time>2012-06-15T09:41:42Z</time>
      </trkpt>
      <trkpt lat="47.29628" lon="4.96813">
        <ele>270.519</ele>
        <time>2012-06-15T09:41:53Z</time>
      </trkpt>
      <trkpt lat="47.2962" lon="4.96822">
        <ele>280.197</ele>
        <time>2012-06-15T09:42:04Z</time>
      </trkpt>
      <trkpt lat="47.29625" lon="4.96823">
        <ele>267.759</ele>
        <time>2012-06-15T09:42:15Z</time>
      </trkpt>
      <trkpt lat="47.29627" lon="4.96822">
        <ele>263.469</ele>
        <time>2012-06-15T09:42:26Z</time>
      </trkpt>
      <trkpt lat="47.29623" lon="4.96823">
        <ele>264.214</ele>
        <time>2012-06-15T09:42:37Z</time>
      </trkpt>
      <trkpt lat="47.29623" lon="4.9682">
        <ele>253.916</ele>
        <time>2012-06-15T09:42:48Z</time>
      </trkpt>
      <trkpt lat="47.29625" lon="4.96817">
        <ele>239.568</ele>
        <time>2012-06-15T09:42:59Z</time>
      </trkpt>
      <trkpt lat="47.29625" lon="4.96817">
        <ele>235.826</ele>
        <time>2012-06-15T09:43:10Z</time>
      </trkpt>
      <trkpt lat="47.29622" lon="4.9682">
        <ele>231.642</ele>
        <time>2012-06-15T09:43:21Z</time>
      </trkpt>
      <trkpt lat="47.29623" lon="4.96818">
        <ele>220.861</ele>
        <time>2012-06-15T09:43:32Z</time>
      </trkpt>
      <trkpt lat="47.29622" lon="4.9682">
        <ele>216.908</ele>
        <time>2012-06-15T09:43:43Z</time>
      </trkpt>
      <trkpt lat="47.29623" lon="4.9682">
        <ele>214.973</ele>
        <time>2012-06-15T09:43:54Z</time>
      </trkpt>
      <trkpt lat="47.29625" lon="4.96818">
        <ele>197.809</ele>
        <time>2012-06-15T09:44:05Z</time>
      </trkpt>
      <trkpt lat="47.29508" lon="4.97">
        <ele>204.663</ele>
        <time>2012-06-15T09:46:17Z</time>
      </trkpt>
      <trkpt lat="47.29477" lon="4.9704">
        <ele>233.604</ele>
        <time>2012-06-15T09:46:28Z</time>
      </trkpt>
      <trkpt lat="47.29467" lon="4.97055">
        <ele>240.262</ele>
        <time>2012-06-15T09:46:39Z</time>
      </trkpt>
      <trkpt lat="47.29462" lon="4.97063">
        <ele>244.001</ele>
        <time>2012-06-15T09:46:50Z</time>
      </trkpt>
      <trkpt lat="47.2945" lon="4.97083">
        <ele>261.1</ele>
        <time>2012-06-15T09:47:01Z</time>
      </trkpt>
      <trkpt lat="47.2944" lon="4.97098">
        <ele>274.141</ele>
        <time>2012-06-15T09:47:12Z</time>
      </trkpt>
      <trkpt lat="47.29438" lon="4.97103">
        <ele>278.776</ele>
        <time>2012-06-15T09:47:23Z</time>
      </trkpt>
      <trkpt lat="47.29428" lon="4.97127">
        <ele>290.531</ele>
        <time>2012-06-15T09:47:34Z</time>
      </trkpt>
      <trkpt lat="47.29423" lon="4.97138">
        <ele>295.736</ele>
        <time>2012-06-15T09:47:45Z</time>
      </trkpt>
      <trkpt lat="47.29418" lon="4.97152">
        <ele>298.615</ele>
        <time>2012-06-15T09:47:56Z</time>
      </trkpt>
      <trkpt lat="47.29413" lon="4.97163">
        <ele>302.54</ele>
        <time>2012-06-15T09:48:07Z</time>
      </trkpt>
      <trkpt lat="47.29408" lon="4.97175">
        <ele>306.877</ele>
        <time>2012-06-15T09:48:18Z</time>
      </trkpt>
      <trkpt lat="47.29402" lon="4.9719">
        <ele>310.226</ele>
        <time>2012-06-15T09:48:29Z</time>
      </trkpt>
      <trkpt lat="47.29397" lon="4.97205">
        <ele>313.785</ele>
        <time>2012-06-15T09:48:40Z</time>
      </trkpt>
      <trkpt lat="47.29392" lon="4.97225">
        <ele>311.035</ele>
        <time>2012-06-15T09:48:51Z</time>
      </trkpt>
      <trkpt lat="47.29388" lon="4.97237">
        <ele>314.384</ele>
        <time>2012-06-15T09:49:02Z</time>
      </trkpt>
      <trkpt lat="47.29377" lon="4.97262">
        <ele>329.536</ele>
        <time>2012-06-15T09:49:13Z</time>
      </trkpt>
      <trkpt lat="47.29368" lon="4.97282">
        <ele>340.774</ele>
        <time>2012-06-15T09:49:24Z</time>
      </trkpt>
      <trkpt lat="47.29363" lon="4.97298">
        <ele>349.6</ele>
        <time>2012-06-15T09:49:35Z</time>
      </trkpt>
      <trkpt lat="47.29357" lon="4.97317">
        <ele>357.26</ele>
        <time>2012-06-15T09:49:46Z</time>
      </trkpt>
      <trkpt lat="47.29347" lon="4.97335">
        <ele>363.025</ele>
        <time>2012-06-15T09:49:57Z</time>
      </trkpt>
      <trkpt lat="47.29337" lon="4.97352">
        <ele>366.096</ele>
        <time>2012-06-15T09:50:08Z</time>
      </trkpt>
      <trkpt lat="47.29328" lon="4.97363">
        <ele>368.776</ele>
        <time>2012-06-15T09:50:19Z</time>
      </trkpt>
      <trkpt lat="47.29318" lon="4.97378">
        <ele>371.237</ele>
        <time>2012-06-15T09:50:30Z</time>
      </trkpt>
      <trkpt lat="47.29303" lon="4.97397">
        <ele>373.934</ele>
        <time>2012-06-15T09:50:41Z</time>
      </trkpt>
      <trkpt lat="47.29295" lon="4.97415">
        <ele>376.987</ele>
        <time>2012-06-15T09:50:52Z</time>
      </trkpt>
      <trkpt lat="47.29295" lon="4.97423">
        <ele>378.634</ele>
        <time>2012-06-15T09:51:03Z</time>
      </trkpt>
      <trkpt lat="47.29298" lon="4.97437">
        <ele>379.928</ele>
        <time>2012-06-15T09:51:14Z</time>
      </trkpt>
      <trkpt lat="47.29297" lon="4.97445">
        <ele>382.706</ele>
        <time>2012-06-15T09:51:25Z</time>
      </trkpt>
      <trkpt lat="47.2929" lon="4.97458">
        <ele>386.061</ele>
        <time>2012-06-15T09:51:36Z</time>
      </trkpt>
      <trkpt lat="47.29283" lon="4.97467">
        <ele>387.686</ele>
        <time>2012-06-15T09:51:47Z</time>
      </trkpt>
      <trkpt lat="47.29283" lon="4.97467">
        <ele>387.77</ele>
        <time>2012-06-15T09:51:58Z</time>
      </trkpt>
      <trkpt lat="47.29282" lon="4.97468">
        <ele>387.748</ele>
        <time>2012-06-15T09:52:09Z</time>
      </trkpt>
      <trkpt lat="47.29282" lon="4.9747">
        <ele>388.42</ele>
        <time>2012-06-15T09:52:20Z</time>
      </trkpt>
      <trkpt lat="47.29278" lon="4.97477">
        <ele>390.75</ele>
        <time>2012-06-15T09:52:31Z</time>
      </trkpt>
      <trkpt lat="47.29273" lon="4.97485">
        <ele>392.205</ele>
        <time>2012-06-15T09:52:42Z</time>
      </trkpt>
      <trkpt lat="47.29267" lon="4.97502">
        <ele>397.948</ele>
        <time>2012-06-15T09:52:53Z</time>
      </trkpt>
      <trkpt lat="47.2926" lon="4.97518">
        <ele>399.208</ele>
        <time>2012-06-15T09:53:04Z</time>
      </trkpt>
      <trkpt lat="47.29257" lon="4.97537">
        <ele>400.069</ele>
        <time>2012-06-15T09:53:15Z</time>
      </trkpt>
      <trkpt lat="47.29257" lon="4.9754">
        <ele>401.049</ele>
        <time>2012-06-15T09:53:26Z</time>
      </trkpt>
      <trkpt lat="47.29253" lon="4.97557">
        <ele>402.638</ele>
        <time>2012-06-15T09:53:37Z</time>
      </trkpt>
      <trkpt lat="47.29255" lon="4.97575">
        <ele>400.068</ele>
        <time>2012-06-15T09:53:48Z</time>
      </trkpt>
      <trkpt lat="47.29255" lon="4.97597">
        <ele>395.339</ele>
        <time>2012-06-15T09:53:59Z</time>
      </trkpt>
      <trkpt lat="47.2926" lon="4.9762">
        <ele>391.94</ele>
        <time>2012-06-15T09:54:10Z</time>
      </trkpt>
      <trkpt lat="47.29263" lon="4.9764">
        <ele>391.045</ele>
        <time>2012-06-15T09:54:21Z</time>
      </trkpt>
      <trkpt lat="47.29267" lon="4.97652">
        <ele>390.018</ele>
        <time>2012-06-15T09:54:32Z</time>
      </trkpt>
      <trkpt lat="47.29272" lon="4.97668">
        <ele>388.44</ele>
        <time>2012-06-15T09:54:43Z</time>
      </trkpt>
      <trkpt lat="47.29278" lon="4.9769">
        <ele>387.358</ele>
        <time>2012-06-15T09:54:54Z</time>
      </trkpt>
      <trkpt lat="47.29287" lon="4.97705">
        <ele>386.427</ele>
        <time>2012-06-15T09:55:05Z</time>
      </trkpt>
      <trkpt lat="47.29295" lon="4.97717">
        <ele>384.878</ele>
        <time>2012-06-15T09:55:16Z</time>
      </trkpt>
      <trkpt lat="47.29303" lon="4.97723">
        <ele>384.187</ele>
        <time>2012-06-15T09:55:27Z</time>
      </trkpt>
      <trkpt lat="47.29303" lon="4.97727">
        <ele>384.074</ele>
        <time>2012-06-15T09:55:38Z</time>
      </trkpt>
      <trkpt lat="47.29308" lon="4.9774">
        <ele>383.803</ele>
        <time>2012-06-15T09:55:49Z</time>
      </trkpt>
      <trkpt lat="47.29313" lon="4.9775">
        <ele>383.917</ele>
        <time>2012-06-15T09:56:00Z</time>
      </trkpt>
      <trkpt lat="47.29315" lon="4.97755">
        <ele>384.561</ele>
        <time>2012-06-15T09:56:11Z</time>
      </trkpt>
      <trkpt lat="47.29317" lon="4.9776">
        <ele>383.203</ele>
        <time>2012-06-15T09:56:22Z</time>
      </trkpt>
      <trkpt lat="47.29323" lon="4.97777">
        <ele>384.918</ele>
        <time>2012-06-15T09:56:33Z</time>
      </trkpt>
      <trkpt lat="47.29327" lon="4.97785">
        <ele>386.072</ele>
        <time>2012-06-15T09:56:44Z</time>
      </trkpt>
      <trkpt lat="47.29327" lon="4.97792">
        <ele>388.684</ele>
        <time>2012-06-15T09:56:55Z</time>
      </trkpt>
      <trkpt lat="47.29327" lon="4.97808">
        <ele>394.625</ele>
        <time>2012-06-15T09:57:06Z</time>
      </trkpt>
      <trkpt lat="47.29325" lon="4.97822">
        <ele>394.657</ele>
        <time>2012-06-15T09:57:17Z</time>
      </trkpt>
      <trkpt lat="47.29325" lon="4.97837">
        <ele>394.251</ele>
        <time>2012-06-15T09:57:28Z</time>
      </trkpt>
      <trkpt lat="47.2932" lon="4.97843">
        <ele>394.823</ele>
        <time>2012-06-15T09:57:39Z</time>
      </trkpt>
      <trkpt lat="47.29303" lon="4.97848">
        <ele>393.818</ele>
        <time>2012-06-15T09:57:50Z</time>
      </trkpt>
      <trkpt lat="47.29292" lon="4.97858">
        <ele>392.565</ele>
        <time>2012-06-15T09:58:01Z</time>
      </trkpt>
      <trkpt lat="47.29282" lon="4.97872">
        <ele>392.433</ele>
        <time>2012-06-15T09:58:12Z</time>
      </trkpt>
      <trkpt lat="47.2927" lon="4.97887">
        <ele>390.778</ele>
        <time>2012-06-15T09:58:23Z</time>
      </trkpt>
      <trkpt lat="47.29262" lon="4.979">
        <ele>392.318</ele>
        <time>2012-06-15T09:58:34Z</time>
      </trkpt>
      <trkpt lat="47.2926" lon="4.97918">
        <ele>391.883</ele>
        <time>2012-06-15T09:58:45Z</time>
      </trkpt>
      <trkpt lat="47.29262" lon="4.97935">
        <ele>391.443</ele>
        <time>2012-06-15T09:58:56Z</time>
      </trkpt>
      <trkpt lat="47.29267" lon="4.97955">
        <ele>389.989</ele>
        <time>2012-06-15T09:59:07Z</time>
      </trkpt>
      <trkpt lat="47.29272" lon="4.97972">
        <ele>388.523</ele>
        <time>2012-06-15T09:59:18Z</time>
      </trkpt>
      <trkpt lat="47.29278" lon="4.97993">
        <ele>387.338</ele>
        <time>2012-06-15T09:59:29Z</time>
      </trkpt>
      <trkpt lat="47.29288" lon="4.98013">
        <ele>385.804</ele>
        <time>2012-06-15T09:59:40Z</time>
      </trkpt>
      <trkpt lat="47.29292" lon="4.98023">
        <ele>385.188</ele>
        <time>2012-06-15T09:59:51Z</time>
      </trkpt>
      <trkpt lat="47.29288" lon="4.9804">
        <ele>383.637</ele>
        <time>2012-06-15T10:00:02Z</time>
      </trkpt>
      <trkpt lat="47.29282" lon="4.98055">
        <ele>383.258</ele>
        <time>2012-06-15T10:00:13Z</time>
      </trkpt>
      <trkpt lat="47.29278" lon="4.98062">
        <ele>381.584</ele>
        <time>2012-06-15T10:00:24Z</time>
      </trkpt>
      <trkpt lat="47.29277" lon="4.98065">
        <ele>380.892</ele>
        <time>2012-06-15T10:00:35Z</time>
      </trkpt>
      <trkpt lat="47.29275" lon="4.98075">
        <ele>378.92</ele>
        <time>2012-06-15T10:00:46Z</time>
      </trkpt>
      <trkpt lat="47.29273" lon="4.98078">
        <ele>378.079</ele>
        <time>2012-06-15T10:00:57Z</time>
      </trkpt>
      <trkpt lat="47.29272" lon="4.98085">
        <ele>376.67</ele>
        <time>2012-06-15T10:01:08Z</time>
      </trkpt>
      <trkpt lat="47.29265" lon="4.9809">
        <ele>376.884</ele>
        <time>2012-06-15T10:01:19Z</time>
      </trkpt>
      <trkpt lat="47.2926" lon="4.981">
        <ele>377.776</ele>
        <time>2012-06-15T10:01:30Z</time>
      </trkpt>
      <trkpt lat="47.29257" lon="4.98115">
        <ele>382.695</ele>
        <time>2012-06-15T10:01:41Z</time>
      </trkpt>
      <trkpt lat="47.2925" lon="4.98128">
        <ele>388.584</ele>
        <time>2012-06-15T10:01:52Z</time>
      </trkpt>
      <trkpt lat="47.29245" lon="4.98135">
        <ele>394.858</ele>
        <time>2012-06-15T10:02:03Z</time>
      </trkpt>
      <trkpt lat="47.2924" lon="4.98142">
        <ele>395.971</ele>
        <time>2012-06-15T10:02:14Z</time>
      </trkpt>
      <trkpt lat="47.29232" lon="4.98145">
        <ele>402.1</ele>
        <time>2012-06-15T10:02:25Z</time>
      </trkpt>
      <trkpt lat="47.29225" lon="4.98148">
        <ele>405.199</ele>
        <time>2012-06-15T10:02:36Z</time>
      </trkpt>
      <trkpt lat="47.29208" lon="4.9815">
        <ele>405.418</ele>
        <time>2012-06-15T10:02:47Z</time>
      </trkpt>
      <trkpt lat="47.29198" lon="4.98153">
        <ele>408.549</ele>
        <time>2012-06-15T10:02:58Z</time>
      </trkpt>
      <trkpt lat="47.29192" lon="4.98157">
        <ele>408.449</ele>
        <time>2012-06-15T10:03:09Z</time>
      </trkpt>
      <trkpt lat="47.29178" lon="4.98157">
        <ele>405.219</ele>
        <time>2012-06-15T10:03:20Z</time>
      </trkpt>
      <trkpt lat="47.29163" lon="4.98158">
        <ele>403.62</ele>
        <time>2012-06-15T10:03:31Z</time>
      </trkpt>
      <trkpt lat="47.29158" lon="4.98157">
        <ele>403.758</ele>
        <time>2012-06-15T10:03:42Z</time>
      </trkpt>
      <trkpt lat="47.29152" lon="4.98158">
        <ele>402.882</ele>
        <time>2012-06-15T10:03:53Z</time>
      </trkpt>
      <trkpt lat="47.29147" lon="4.9816">
        <ele>400.113</ele>
        <time>2012-06-15T10:04:04Z</time>
      </trkpt>
      <trkpt lat="47.29133" lon="4.98168">
        <ele>397.89</ele>
        <time>2012-06-15T10:04:15Z</time>
      </trkpt>
      <trkpt lat="47.29122" lon="4.98162">
        <ele>400.362</ele>
        <time>2012-06-15T10:04:26Z</time>
      </trkpt>
      <trkpt lat="47.29115" lon="4.98158">
        <ele>401.752</ele>
        <time>2012-06-15T10:04:37Z</time>
      </trkpt>
      <trkpt lat="47.29108" lon="4.98162">
        <ele>399.99</ele>
        <time>2012-06-15T10:04:48Z</time>
      </trkpt>
      <trkpt lat="47.29102" lon="4.98168">
        <ele>397.541</ele>
        <time>2012-06-15T10:04:59Z</time>
      </trkpt>
      <trkpt lat="47.29095" lon="4.9817">
        <ele>398.138</ele>
        <time>2012-06-15T10:05:10Z</time>
      </trkpt>
      <trkpt lat="47.29083" lon="4.98172">
        <ele>398.284</ele>
        <time>2012-06-15T10:05:21Z</time>
      </trkpt>
      <trkpt lat="47.29073" lon="4.98168">
        <ele>398.688</ele>
        <time>2012-06-15T10:05:32Z</time>
      </trkpt>
      <trkpt lat="47.29057" lon="4.98175">
        <ele>404.521</ele>
        <time>2012-06-15T10:05:43Z</time>
      </trkpt>
      <trkpt lat="47.29043" lon="4.98193">
        <ele>407.03</ele>
        <time>2012-06-15T10:05:54Z</time>
      </trkpt>
      <trkpt lat="47.29033" lon="4.98195">
        <ele>412.032</ele>
        <time>2012-06-15T10:06:05Z</time>
      </trkpt>
      <trkpt lat="47.29012" lon="4.98213">
        <ele>413.96</ele>
        <time>2012-06-15T10:06:16Z</time>
      </trkpt>
      <trkpt lat="47.28993" lon="4.98237">
        <ele>410.245</ele>
        <time>2012-06-15T10:06:27Z</time>
      </trkpt>
      <trkpt lat="47.28985" lon="4.98255">
        <ele>410.915</ele>
        <time>2012-06-15T10:06:38Z</time>
      </trkpt>
      <trkpt lat="47.28972" lon="4.98273">
        <ele>411.608</ele>
        <time>2012-06-15T10:06:49Z</time>
      </trkpt>
      <trkpt lat="47.28962" lon="4.98282">
        <ele>414.061</ele>
        <time>2012-06-15T10:07:00Z</time>
      </trkpt>
      <trkpt lat="47.28955" lon="4.98292">
        <ele>412.012</ele>
        <time>2012-06-15T10:07:11Z</time>
      </trkpt>
      <trkpt lat="47.28955" lon="4.98302">
        <ele>413.413</ele>
        <time>2012-06-15T10:07:22Z</time>
      </trkpt>
      <trkpt lat="47.28943" lon="4.98322">
        <ele>414.004</ele>
        <time>2012-06-15T10:07:33Z</time>
      </trkpt>
      <trkpt lat="47.28935" lon="4.98345">
        <ele>411.951</ele>
        <time>2012-06-15T10:07:44Z</time>
      </trkpt>
      <trkpt lat="47.2893" lon="4.98367">
        <ele>410.495</ele>
        <time>2012-06-15T10:07:55Z</time>
      </trkpt>
      <trkpt lat="47.2893" lon="4.98387">
        <ele>412.451</ele>
        <time>2012-06-15T10:08:06Z</time>
      </trkpt>
      <trkpt lat="47.2893" lon="4.98408">
        <ele>413.173</ele>
        <time>2012-06-15T10:08:17Z</time>
      </trkpt>
      <trkpt lat="47.2893" lon="4.98422">
        <ele>412</ele>
        <time>2012-06-15T10:08:28Z</time>
      </trkpt>
      <trkpt lat="47.28928" lon="4.98448">
        <ele>411.85</ele>
        <time>2012-06-15T10:08:39Z</time>
      </trkpt>
      <trkpt lat="47.28928" lon="4.98472">
        <ele>407.708</ele>
        <time>2012-06-15T10:08:50Z</time>
      </trkpt>
      <trkpt lat="47.28932" lon="4.98493">
        <ele>410.807</ele>
        <time>2012-06-15T10:09:01Z</time>
      </trkpt>
      <trkpt lat="47.28932" lon="4.98503">
        <ele>410.383</ele>
        <time>2012-06-15T10:09:12Z</time>
      </trkpt>
      <trkpt lat="47.28935" lon="4.98523">
        <ele>408.551</ele>
        <time>2012-06-15T10:09:23Z</time>
      </trkpt>
      <trkpt lat="47.28933" lon="4.98548">
        <ele>409.57</ele>
        <time>2012-06-15T10:09:34Z</time>
      </trkpt>
      <trkpt lat="47.28925" lon="4.98568">
        <ele>409.399</ele>
        <time>2012-06-15T10:09:45Z</time>
      </trkpt>
      <trkpt lat="47.28922" lon="4.9859">
        <ele>409.481</ele>
        <time>2012-06-15T10:09:56Z</time>
      </trkpt>
      <trkpt lat="47.28918" lon="4.9861">
        <ele>411.004</ele>
        <time>2012-06-15T10:10:07Z</time>
      </trkpt>
      <trkpt lat="47.28913" lon="4.9863">
        <ele>410.537</ele>
        <time>2012-06-15T10:10:18Z</time>
      </trkpt>
      <trkpt lat="47.28908" lon="4.98652">
        <ele>411.191</ele>
        <time>2012-06-15T10:10:29Z</time>
      </trkpt>
      <trkpt lat="47.28903" lon="4.9867">
        <ele>411.916</ele>
        <time>2012-06-15T10:10:40Z</time>
      </trkpt>
      <trkpt lat="47.28897" lon="4.98687">
        <ele>410.982</ele>
        <time>2012-06-15T10:10:51Z</time>
      </trkpt>
      <trkpt lat="47.28895" lon="4.98697">
        <ele>410.014</ele>
        <time>2012-06-15T10:11:02Z</time>
      </trkpt>
      <trkpt lat="47.28895" lon="4.98707">
        <ele>408.89</ele>
        <time>2012-06-15T10:11:13Z</time>
      </trkpt>
      <trkpt lat="47.28893" lon="4.98722">
        <ele>406.4</ele>
        <time>2012-06-15T10:11:24Z</time>
      </trkpt>
      <trkpt lat="47.28893" lon="4.98735">
        <ele>402.898</ele>
        <time>2012-06-15T10:11:35Z</time>
      </trkpt>
      <trkpt lat="47.28887" lon="4.98743">
        <ele>396.135</ele>
        <time>2012-06-15T10:11:46Z</time>
      </trkpt>
      <trkpt lat="47.28872" lon="4.98772">
        <ele>387.421</ele>
        <time>2012-06-15T10:11:57Z</time>
      </trkpt>
      <trkpt lat="47.28857" lon="4.988">
        <ele>384.271</ele>
        <time>2012-06-15T10:12:08Z</time>
      </trkpt>
      <trkpt lat="47.28848" lon="4.98823">
        <ele>384.462</ele>
        <time>2012-06-15T10:12:19Z</time>
      </trkpt>
      <trkpt lat="47.28843" lon="4.98847">
        <ele>382.448</ele>
        <time>2012-06-15T10:12:30Z</time>
      </trkpt>
      <trkpt lat="47.28843" lon="4.98855">
        <ele>382.498</ele>
        <time>2012-06-15T10:12:41Z</time>
      </trkpt>
      <trkpt lat="47.2885" lon="4.98868">
        <ele>383.082</ele>
        <time>2012-06-15T10:12:52Z</time>
      </trkpt>
      <trkpt lat="47.28853" lon="4.9887">
        <ele>380.735</ele>
        <time>2012-06-15T10:13:03Z</time>
      </trkpt>
      <trkpt lat="47.2886" lon="4.98877">
        <ele>379.04</ele>
        <time>2012-06-15T10:13:14Z</time>
      </trkpt>
      <trkpt lat="47.2887" lon="4.98888">
        <ele>377.124</ele>
        <time>2012-06-15T10:13:25Z</time>
      </trkpt>
      <trkpt lat="47.2888" lon="4.98895">
        <ele>377.544</ele>
        <time>2012-06-15T10:13:36Z</time>
      </trkpt>
      <trkpt lat="47.28888" lon="4.989">
        <ele>378.583</ele>
        <time>2012-06-15T10:13:47Z</time>
      </trkpt>
      <trkpt lat="47.289" lon="4.98918">
        <ele>376.812</ele>
        <time>2012-06-15T10:13:58Z</time>
      </trkpt>
      <trkpt lat="47.28913" lon="4.98938">
        <ele>373.158</ele>
        <time>2012-06-15T10:14:09Z</time>
      </trkpt>
      <trkpt lat="47.28923" lon="4.9895">
        <ele>371.922</ele>
        <time>2012-06-15T10:14:20Z</time>
      </trkpt>
      <trkpt lat="47.28935" lon="4.98965">
        <ele>370.17</ele>
        <time>2012-06-15T10:14:31Z</time>
      </trkpt>
      <trkpt lat="47.28937" lon="4.98968">
        <ele>369.809</ele>
        <time>2012-06-15T10:14:42Z</time>
      </trkpt>
      <trkpt lat="47.28948" lon="4.98993">
        <ele>368.408</ele>
        <time>2012-06-15T10:14:53Z</time>
      </trkpt>
      <trkpt lat="47.28957" lon="4.99003">
        <ele>365.268</ele>
        <time>2012-06-15T10:15:04Z</time>
      </trkpt>
      <trkpt lat="47.2896" lon="4.99008">
        <ele>363.733</ele>
        <time>2012-06-15T10:15:15Z</time>
      </trkpt>
      <trkpt lat="47.2896" lon="4.99008">
        <ele>363.733</ele>
        <time>2012-06-15T10:15:26Z</time>
      </trkpt>
      <trkpt lat="47.28963" lon="4.99012">
        <ele>363.719</ele>
        <time>2012-06-15T10:15:37Z</time>
      </trkpt>
      <trkpt lat="47.28965" lon="4.99015">
        <ele>364.638</ele>
        <time>2012-06-15T10:15:48Z</time>
      </trkpt>
      <trkpt lat="47.28968" lon="4.99017">
        <ele>365.107</ele>
        <time>2012-06-15T10:15:59Z</time>
      </trkpt>
      <trkpt lat="47.28973" lon="4.99027">
        <ele>365.762</ele>
        <time>2012-06-15T10:16:10Z</time>
      </trkpt>
      <trkpt lat="47.28977" lon="4.9903">
        <ele>366.545</ele>
        <time>2012-06-15T10:16:21Z</time>
      </trkpt>
      <trkpt lat="47.28977" lon="4.99032">
        <ele>367.04</ele>
        <time>2012-06-15T10:16:32Z</time>
      </trkpt>
      <trkpt lat="47.2898" lon="4.99038">
        <ele>366.841</ele>
        <time>2012-06-15T10:16:43Z</time>
      </trkpt>
      <trkpt lat="47.28983" lon="4.99055">
        <ele>367.986</ele>
        <time>2012-06-15T10:16:54Z</time>
      </trkpt>
      <trkpt lat="47.2899" lon="4.99075">
        <ele>367.122</ele>
        <time>2012-06-15T10:17:05Z</time>
      </trkpt>
      <trkpt lat="47.28993" lon="4.99098">
        <ele>363.915</ele>
        <time>2012-06-15T10:17:16Z</time>
      </trkpt>
      <trkpt lat="47.28998" lon="4.99105">
        <ele>363.795</ele>
        <time>2012-06-15T10:17:27Z</time>
      </trkpt>
      <trkpt lat="47.29005" lon="4.99108">
        <ele>362.969</ele>
        <time>2012-06-15T10:17:38Z</time>
      </trkpt>
      <trkpt lat="47.29013" lon="4.99115">
        <ele>362.296</ele>
        <time>2012-06-15T10:17:49Z</time>
      </trkpt>
      <trkpt lat="47.29025" lon="4.99123">
        <ele>361.8</ele>
        <time>2012-06-15T10:18:00Z</time>
      </trkpt>
      <trkpt lat="47.29037" lon="4.99135">
        <ele>361.363</ele>
        <time>2012-06-15T10:18:11Z</time>
      </trkpt>
      <trkpt lat="47.29043" lon="4.99158">
        <ele>360.774</ele>
        <time>2012-06-15T10:18:22Z</time>
      </trkpt>
      <trkpt lat="47.29047" lon="4.99173">
        <ele>361.964</ele>
        <time>2012-06-15T10:18:33Z</time>
      </trkpt>
      <trkpt lat="47.2905" lon="4.99192">
        <ele>361.004</ele>
        <time>2012-06-15T10:18:44Z</time>
      </trkpt>
      <trkpt lat="47.29053" lon="4.99213">
        <ele>360.384</ele>
        <time>2012-06-15T10:18:55Z</time>
      </trkpt>
      <trkpt lat="47.29057" lon="4.99235">
        <ele>358.763</ele>
        <time>2012-06-15T10:19:06Z</time>
      </trkpt>
      <trkpt lat="47.29058" lon="4.99258">
        <ele>357.126</ele>
        <time>2012-06-15T10:19:17Z</time>
      </trkpt>
      <trkpt lat="47.29058" lon="4.99282">
        <ele>354.967</ele>
        <time>2012-06-15T10:19:28Z</time>
      </trkpt>
      <trkpt lat="47.29062" lon="4.99302">
        <ele>354.036</ele>
        <time>2012-06-15T10:19:39Z</time>
      </trkpt>
      <trkpt lat="47.29067" lon="4.99318">
        <ele>354.574</ele>
        <time>2012-06-15T10:19:50Z</time>
      </trkpt>
      <trkpt lat="47.29072" lon="4.99335">
        <ele>355.402</ele>
        <time>2012-06-15T10:20:01Z</time>
      </trkpt>
      <trkpt lat="47.29075" lon="4.99352">
        <ele>355.144</ele>
        <time>2012-06-15T10:20:12Z</time>
      </trkpt>
      <trkpt lat="47.29072" lon="4.99375">
        <ele>353.948</ele>
        <time>2012-06-15T10:20:23Z</time>
      </trkpt>
      <trkpt lat="47.29068" lon="4.99397">
        <ele>353.546</ele>
        <time>2012-06-15T10:20:34Z</time>
      </trkpt>
      <trkpt lat="47.29068" lon="4.9942">
        <ele>353.071</ele>
        <time>2012-06-15T10:20:45Z</time>
      </trkpt>
      <trkpt lat="47.2907" lon="4.9944">
        <ele>351.114</ele>
        <time>2012-06-15T10:20:56Z</time>
      </trkpt>
      <trkpt lat="47.29072" lon="4.99453">
        <ele>351.456</ele>
        <time>2012-06-15T10:21:07Z</time>
      </trkpt>
      <trkpt lat="47.29073" lon="4.99468">
        <ele>350.243</ele>
        <time>2012-06-15T10:21:18Z</time>
      </trkpt>
      <trkpt lat="47.29077" lon="4.99482">
        <ele>349.554</ele>
        <time>2012-06-15T10:21:29Z</time>
      </trkpt>
      <trkpt lat="47.29085" lon="4.99495">
        <ele>347.907</ele>
        <time>2012-06-15T10:21:40Z</time>
      </trkpt>
      <trkpt lat="47.29092" lon="4.99507">
        <ele>347.334</ele>
        <time>2012-06-15T10:21:51Z</time>
      </trkpt>
      <trkpt lat="47.29102" lon="4.99517">
        <ele>346.532</ele>
        <time>2012-06-15T10:22:02Z</time>
      </trkpt>
      <trkpt lat="47.29112" lon="4.99528">
        <ele>345.264</ele>
        <time>2012-06-15T10:22:13Z</time>
      </trkpt>
      <trkpt lat="47.29117" lon="4.99538">
        <ele>344.158</ele>
        <time>2012-06-15T10:22:24Z</time>
      </trkpt>
      <trkpt lat="47.2913" lon="4.99548">
        <ele>344.452</ele>
        <time>2012-06-15T10:22:35Z</time>
      </trkpt>
      <trkpt lat="47.29138" lon="4.99563">
        <ele>343.726</ele>
        <time>2012-06-15T10:22:46Z</time>
      </trkpt>
      <trkpt lat="47.29148" lon="4.99577">
        <ele>345.596</ele>
        <time>2012-06-15T10:22:57Z</time>
      </trkpt>
      <trkpt lat="47.29157" lon="4.99587">
        <ele>344.902</ele>
        <time>2012-06-15T10:23:08Z</time>
      </trkpt>
      <trkpt lat="47.29168" lon="4.99608">
        <ele>341.317</ele>
        <time>2012-06-15T10:23:19Z</time>
      </trkpt>
      <trkpt lat="47.29175" lon="4.99615">
        <ele>339.823</ele>
        <time>2012-06-15T10:23:30Z</time>
      </trkpt>
      <trkpt lat="47.29185" lon="4.9963">
        <ele>334.878</ele>
        <time>2012-06-15T10:23:41Z</time>
      </trkpt>
      <trkpt lat="47.29198" lon="4.9964">
        <ele>330.916</ele>
        <time>2012-06-15T10:23:52Z</time>
      </trkpt>
      <trkpt lat="47.29212" lon="4.99642">
        <ele>328.834</ele>
        <time>2012-06-15T10:24:03Z</time>
      </trkpt>
      <trkpt lat="47.29227" lon="4.99648">
        <ele>327.719</ele>
        <time>2012-06-15T10:24:14Z</time>
      </trkpt>
      <trkpt lat="47.29242" lon="4.9966">
        <ele>324.356</ele>
        <time>2012-06-15T10:24:25Z</time>
      </trkpt>
      <trkpt lat="47.29253" lon="4.99675">
        <ele>323.91</ele>
        <time>2012-06-15T10:24:36Z</time>
      </trkpt>
      <trkpt lat="47.29263" lon="4.9968">
        <ele>323.025</ele>
        <time>2012-06-15T10:24:47Z</time>
      </trkpt>
      <trkpt lat="47.29267" lon="4.99703">
        <ele>322.209</ele>
        <time>2012-06-15T10:24:58Z</time>
      </trkpt>
      <trkpt lat="47.29268" lon="4.99722">
        <ele>321.86</ele>
        <time>2012-06-15T10:25:09Z</time>
      </trkpt>
      <trkpt lat="47.2927" lon="4.99735">
        <ele>322.361</ele>
        <time>2012-06-15T10:25:20Z</time>
      </trkpt>
      <trkpt lat="47.2927" lon="4.9976">
        <ele>319.245</ele>
        <time>2012-06-15T10:25:31Z</time>
      </trkpt>
      <trkpt lat="47.29267" lon="4.9978">
        <ele>318.483</ele>
        <time>2012-06-15T10:25:42Z</time>
      </trkpt>
      <trkpt lat="47.29268" lon="4.99803">
        <ele>316.515</ele>
        <time>2012-06-15T10:25:53Z</time>
      </trkpt>
      <trkpt lat="47.2926" lon="4.99822">
        <ele>315.594</ele>
        <time>2012-06-15T10:26:04Z</time>
      </trkpt>
      <trkpt lat="47.29257" lon="4.99842">
        <ele>312.505</ele>
        <time>2012-06-15T10:26:15Z</time>
      </trkpt>
      <trkpt lat="47.29255" lon="4.99853">
        <ele>312.344</ele>
        <time>2012-06-15T10:26:26Z</time>
      </trkpt>
      <trkpt lat="47.29252" lon="4.99877">
        <ele>310.83</ele>
        <time>2012-06-15T10:26:37Z</time>
      </trkpt>
      <trkpt lat="47.29245" lon="4.99897">
        <ele>308.919</ele>
        <time>2012-06-15T10:26:48Z</time>
      </trkpt>
      <trkpt lat="47.2924" lon="4.99918">
        <ele>307.359</ele>
        <time>2012-06-15T10:26:59Z</time>
      </trkpt>
      <trkpt lat="47.2924" lon="4.99922">
        <ele>307.24</ele>
        <time>2012-06-15T10:27:10Z</time>
      </trkpt>
      <trkpt lat="47.29238" lon="4.99933">
        <ele>305.147</ele>
        <time>2012-06-15T10:27:21Z</time>
      </trkpt>
      <trkpt lat="47.29232" lon="4.99962">
        <ele>302.096</ele>
        <time>2012-06-15T10:27:32Z</time>
      </trkpt>
      <trkpt lat="47.29232" lon="4.99985">
        <ele>299.98</ele>
        <time>2012-06-15T10:27:43Z</time>
      </trkpt>
      <trkpt lat="47.29232" lon="5.00003">
        <ele>300.278</ele>
        <time>2012-06-15T10:27:54Z</time>
      </trkpt>
      <trkpt lat="47.2923" lon="5.0002">
        <ele>303.682</ele>
        <time>2012-06-15T10:28:05Z</time>
      </trkpt>
      <trkpt lat="47.29227" lon="5.00042">
        <ele>303.66</ele>
        <time>2012-06-15T10:28:16Z</time>
      </trkpt>
      <trkpt lat="47.29223" lon="5.00058">
        <ele>302.725</ele>
        <time>2012-06-15T10:28:27Z</time>
      </trkpt>
      <trkpt lat="47.29218" lon="5.00078">
        <ele>300.386</ele>
        <time>2012-06-15T10:28:38Z</time>
      </trkpt>
      <trkpt lat="47.29215" lon="5.00102">
        <ele>297.781</ele>
        <time>2012-06-15T10:28:49Z</time>
      </trkpt>
      <trkpt lat="47.2921" lon="5.00122">
        <ele>296.357</ele>
        <time>2012-06-15T10:29:00Z</time>
      </trkpt>
      <trkpt lat="47.29205" lon="5.00137">
        <ele>295.866</ele>
        <time>2012-06-15T10:29:11Z</time>
      </trkpt>
      <trkpt lat="47.29198" lon="5.00148">
        <ele>295.47</ele>
        <time>2012-06-15T10:29:22Z</time>
      </trkpt>
      <trkpt lat="47.2919" lon="5.0016">
        <ele>295.017</ele>
        <time>2012-06-15T10:29:33Z</time>
      </trkpt>
      <trkpt lat="47.29192" lon="5.00178">
        <ele>293.745</ele>
        <time>2012-06-15T10:29:44Z</time>
      </trkpt>
      <trkpt lat="47.29202" lon="5.00183">
        <ele>294.318</ele>
        <time>2012-06-15T10:29:55Z</time>
      </trkpt>
      <trkpt lat="47.29208" lon="5.00195">
        <ele>293.247</ele>
        <time>2012-06-15T10:30:06Z</time>
      </trkpt>
      <trkpt lat="47.29213" lon="5.00207">
        <ele>293.86</ele>
        <time>2012-06-15T10:30:17Z</time>
      </trkpt>
      <trkpt lat="47.2922" lon="5.00225">
        <ele>293.917</ele>
        <time>2012-06-15T10:30:28Z</time>
      </trkpt>
      <trkpt lat="47.2922" lon="5.00245">
        <ele>290.029</ele>
        <time>2012-06-15T10:30:39Z</time>
      </trkpt>
      <trkpt lat="47.29212" lon="5.00265">
        <ele>289.285</ele>
        <time>2012-06-15T10:30:50Z</time>
      </trkpt>
      <trkpt lat="47.29205" lon="5.00278">
        <ele>291.478</ele>
        <time>2012-06-15T10:31:01Z</time>
      </trkpt>
      <trkpt lat="47.29197" lon="5.00292">
        <ele>291.278</ele>
        <time>2012-06-15T10:31:12Z</time>
      </trkpt>
      <trkpt lat="47.29192" lon="5.00317">
        <ele>289.272</ele>
        <time>2012-06-15T10:31:23Z</time>
      </trkpt>
      <trkpt lat="47.29192" lon="5.00327">
        <ele>288.041</ele>
        <time>2012-06-15T10:31:34Z</time>
      </trkpt>
      <trkpt lat="47.29195" lon="5.00343">
        <ele>290.276</ele>
        <time>2012-06-15T10:31:45Z</time>
      </trkpt>
      <trkpt lat="47.29205" lon="5.00355">
        <ele>288.806</ele>
        <time>2012-06-15T10:31:56Z</time>
      </trkpt>
      <trkpt lat="47.29208" lon="5.00372">
        <ele>288.43</ele>
        <time>2012-06-15T10:32:07Z</time>
      </trkpt>
      <trkpt lat="47.29208" lon="5.00388">
        <ele>286.655</ele>
        <time>2012-06-15T10:32:18Z</time>
      </trkpt>
      <trkpt lat="47.29203" lon="5.00405">
        <ele>287.377</ele>
        <time>2012-06-15T10:32:29Z</time>
      </trkpt>
      <trkpt lat="47.29205" lon="5.00417">
        <ele>286.802</ele>
        <time>2012-06-15T10:32:40Z</time>
      </trkpt>
      <trkpt lat="47.29217" lon="5.00433">
        <ele>285.371</ele>
        <time>2012-06-15T10:32:51Z</time>
      </trkpt>
      <trkpt lat="47.29225" lon="5.00448">
        <ele>283.104</ele>
        <time>2012-06-15T10:33:02Z</time>
      </trkpt>
      <trkpt lat="47.29228" lon="5.00462">
        <ele>282.242</ele>
        <time>2012-06-15T10:33:13Z</time>
      </trkpt>
    </trkseg>
  </trk>
</gpx>